<?xml version="1.0" encoding="UTF-8" standalone="no" ?>
<gpx xmlns="http://www.topografix.com/GPX/1/1" xmlns:xsi="http://www.w3.org/2001/XMLSchema-instance" xsi:schemaLocation="http://www.topografix.com/GPX/1/1 http://www.topografix.com/GPX/1/1/gpx.xsd" version="1.1" creator="VisuGPX - https://www.visugpx.com">
  <metadata>
    <name>Pareloup</name>
  </metadata>
  <trk>
    <name><![CDATA[Le Bastié]]></name>
    <extensions>
      <line xmlns="http://www.topografix.com/GPX/gpx_style/0/2">
        <color>0000FF</color>
        <width>4</width>
      </line>
    </extensions>
    <trkseg>
      <trkpt lat="44.19195" lon="2.66346">
        <ele>724.01</ele>
        <time>2022-07-16T06:14:26Z</time>
      </trkpt>
      <trkpt lat="44.19204" lon="2.66317">
        <ele>723.05</ele>
        <time>2022-07-16T06:21:04Z</time>
      </trkpt>
      <trkpt lat="44.19214" lon="2.66308">
        <ele>722.09</ele>
        <time>2022-07-16T06:21:16Z</time>
      </trkpt>
      <trkpt lat="44.19232" lon="2.66293">
        <ele>722.09</ele>
        <time>2022-07-16T06:21:35Z</time>
      </trkpt>
      <trkpt lat="44.19241" lon="2.662">
        <ele>703.82</ele>
        <time>2022-07-16T06:22:36Z</time>
      </trkpt>
      <trkpt lat="44.19234" lon="2.66152">
        <ele>708.15</ele>
        <time>2022-07-16T06:23:38Z</time>
      </trkpt>
      <trkpt lat="44.19237" lon="2.66103">
        <ele>699.98</ele>
        <time>2022-07-16T06:26:43Z</time>
      </trkpt>
      <trkpt lat="44.19253" lon="2.66104">
        <ele>701.9</ele>
        <time>2022-07-16T06:26:53Z</time>
      </trkpt>
      <trkpt lat="44.19242" lon="2.66093">
        <ele>709.59</ele>
        <time>2022-07-16T06:27:13Z</time>
      </trkpt>
      <trkpt lat="44.19232" lon="2.66098">
        <ele>710.07</ele>
        <time>2022-07-16T06:27:22Z</time>
      </trkpt>
      <trkpt lat="44.19222" lon="2.66103">
        <ele>711.03</ele>
        <time>2022-07-16T06:27:31Z</time>
      </trkpt>
      <trkpt lat="44.19213" lon="2.661">
        <ele>710.55</ele>
        <time>2022-07-16T06:27:40Z</time>
      </trkpt>
      <trkpt lat="44.19208" lon="2.66088">
        <ele>709.59</ele>
        <time>2022-07-16T06:27:50Z</time>
      </trkpt>
      <trkpt lat="44.19203" lon="2.66075">
        <ele>708.63</ele>
        <time>2022-07-16T06:27:59Z</time>
      </trkpt>
      <trkpt lat="44.19197" lon="2.66059">
        <ele>706.71</ele>
        <time>2022-07-16T06:28:08Z</time>
      </trkpt>
      <trkpt lat="44.19189" lon="2.66042">
        <ele>706.23</ele>
        <time>2022-07-16T06:28:20Z</time>
      </trkpt>
      <trkpt lat="44.19162" lon="2.66031">
        <ele>705.26</ele>
        <time>2022-07-16T06:29:02Z</time>
      </trkpt>
      <trkpt lat="44.19153" lon="2.66027">
        <ele>704.78</ele>
        <time>2022-07-16T06:29:12Z</time>
      </trkpt>
      <trkpt lat="44.19143" lon="2.6602">
        <ele>705.75</ele>
        <time>2022-07-16T06:29:23Z</time>
      </trkpt>
      <trkpt lat="44.19134" lon="2.66015">
        <ele>707.19</ele>
        <time>2022-07-16T06:29:33Z</time>
      </trkpt>
      <trkpt lat="44.1912" lon="2.66009">
        <ele>709.59</ele>
        <time>2022-07-16T06:29:45Z</time>
      </trkpt>
      <trkpt lat="44.19111" lon="2.66006">
        <ele>710.55</ele>
        <time>2022-07-16T06:29:54Z</time>
      </trkpt>
      <trkpt lat="44.191" lon="2.66005">
        <ele>710.55</ele>
        <time>2022-07-16T06:30:05Z</time>
      </trkpt>
      <trkpt lat="44.19089" lon="2.66005">
        <ele>710.07</ele>
        <time>2022-07-16T06:30:15Z</time>
      </trkpt>
      <trkpt lat="44.19082" lon="2.66005">
        <ele>707.67</ele>
        <time>2022-07-16T06:30:24Z</time>
      </trkpt>
      <trkpt lat="44.19075" lon="2.66004">
        <ele>705.75</ele>
        <time>2022-07-16T06:30:32Z</time>
      </trkpt>
      <trkpt lat="44.19066" lon="2.66006">
        <ele>705.75</ele>
        <time>2022-07-16T06:30:42Z</time>
      </trkpt>
      <trkpt lat="44.19049" lon="2.65999">
        <ele>710.07</ele>
        <time>2022-07-16T06:31:00Z</time>
      </trkpt>
      <trkpt lat="44.1904" lon="2.65993">
        <ele>714.88</ele>
        <time>2022-07-16T06:31:09Z</time>
      </trkpt>
      <trkpt lat="44.19029" lon="2.65987">
        <ele>715.84</ele>
        <time>2022-07-16T06:31:19Z</time>
      </trkpt>
      <trkpt lat="44.19019" lon="2.65981">
        <ele>716.32</ele>
        <time>2022-07-16T06:31:30Z</time>
      </trkpt>
      <trkpt lat="44.19007" lon="2.6598">
        <ele>717.76</ele>
        <time>2022-07-16T06:31:40Z</time>
      </trkpt>
      <trkpt lat="44.18999" lon="2.65987">
        <ele>718.24</ele>
        <time>2022-07-16T06:31:50Z</time>
      </trkpt>
      <trkpt lat="44.18989" lon="2.65987">
        <ele>719.2</ele>
        <time>2022-07-16T06:32:00Z</time>
      </trkpt>
      <trkpt lat="44.18979" lon="2.65984">
        <ele>719.68</ele>
        <time>2022-07-16T06:32:09Z</time>
      </trkpt>
      <trkpt lat="44.1897" lon="2.6598">
        <ele>719.2</ele>
        <time>2022-07-16T06:32:18Z</time>
      </trkpt>
      <trkpt lat="44.1896" lon="2.65977">
        <ele>720.16</ele>
        <time>2022-07-16T06:32:27Z</time>
      </trkpt>
      <trkpt lat="44.1895" lon="2.65974">
        <ele>720.65</ele>
        <time>2022-07-16T06:32:36Z</time>
      </trkpt>
      <trkpt lat="44.18943" lon="2.65964">
        <ele>720.16</ele>
        <time>2022-07-16T06:32:45Z</time>
      </trkpt>
      <trkpt lat="44.18937" lon="2.6595">
        <ele>719.2</ele>
        <time>2022-07-16T06:32:55Z</time>
      </trkpt>
      <trkpt lat="44.18933" lon="2.65937">
        <ele>717.28</ele>
        <time>2022-07-16T06:33:04Z</time>
      </trkpt>
      <trkpt lat="44.1893" lon="2.65923">
        <ele>714.4</ele>
        <time>2022-07-16T06:33:13Z</time>
      </trkpt>
      <trkpt lat="44.18925" lon="2.6591">
        <ele>712.47</ele>
        <time>2022-07-16T06:33:22Z</time>
      </trkpt>
      <trkpt lat="44.18917" lon="2.65901">
        <ele>712.47</ele>
        <time>2022-07-16T06:33:30Z</time>
      </trkpt>
      <trkpt lat="44.18909" lon="2.65889">
        <ele>713.44</ele>
        <time>2022-07-16T06:33:39Z</time>
      </trkpt>
      <trkpt lat="44.18903" lon="2.6588">
        <ele>712.95</ele>
        <time>2022-07-16T06:33:47Z</time>
      </trkpt>
      <trkpt lat="44.18895" lon="2.65872">
        <ele>712.47</ele>
        <time>2022-07-16T06:33:56Z</time>
      </trkpt>
      <trkpt lat="44.18886" lon="2.6587">
        <ele>712.47</ele>
        <time>2022-07-16T06:34:05Z</time>
      </trkpt>
      <trkpt lat="44.18876" lon="2.65867">
        <ele>713.44</ele>
        <time>2022-07-16T06:34:14Z</time>
      </trkpt>
      <trkpt lat="44.18865" lon="2.65866">
        <ele>713.92</ele>
        <time>2022-07-16T06:34:23Z</time>
      </trkpt>
      <trkpt lat="44.18856" lon="2.65867">
        <ele>715.36</ele>
        <time>2022-07-16T06:34:32Z</time>
      </trkpt>
      <trkpt lat="44.18847" lon="2.65869">
        <ele>716.32</ele>
        <time>2022-07-16T06:34:40Z</time>
      </trkpt>
      <trkpt lat="44.18837" lon="2.65871">
        <ele>716.8</ele>
        <time>2022-07-16T06:34:50Z</time>
      </trkpt>
      <trkpt lat="44.18826" lon="2.65871">
        <ele>718.72</ele>
        <time>2022-07-16T06:35:00Z</time>
      </trkpt>
      <trkpt lat="44.18817" lon="2.65865">
        <ele>719.68</ele>
        <time>2022-07-16T06:35:09Z</time>
      </trkpt>
      <trkpt lat="44.18809" lon="2.65858">
        <ele>719.2</ele>
        <time>2022-07-16T06:35:17Z</time>
      </trkpt>
      <trkpt lat="44.18801" lon="2.65849">
        <ele>720.16</ele>
        <time>2022-07-16T06:35:25Z</time>
      </trkpt>
      <trkpt lat="44.18792" lon="2.65843">
        <ele>722.57</ele>
        <time>2022-07-16T06:35:34Z</time>
      </trkpt>
      <trkpt lat="44.18781" lon="2.65838">
        <ele>724.01</ele>
        <time>2022-07-16T06:35:44Z</time>
      </trkpt>
      <trkpt lat="44.18772" lon="2.65836">
        <ele>724.97</ele>
        <time>2022-07-16T06:35:53Z</time>
      </trkpt>
      <trkpt lat="44.18762" lon="2.65834">
        <ele>726.41</ele>
        <time>2022-07-16T06:36:02Z</time>
      </trkpt>
      <trkpt lat="44.18751" lon="2.65824">
        <ele>727.37</ele>
        <time>2022-07-16T06:36:13Z</time>
      </trkpt>
      <trkpt lat="44.18744" lon="2.65813">
        <ele>728.82</ele>
        <time>2022-07-16T06:36:23Z</time>
      </trkpt>
      <trkpt lat="44.18736" lon="2.65799">
        <ele>731.7</ele>
        <time>2022-07-16T06:36:33Z</time>
      </trkpt>
      <trkpt lat="44.18733" lon="2.65777">
        <ele>732.18</ele>
        <time>2022-07-16T06:36:47Z</time>
      </trkpt>
      <trkpt lat="44.1873" lon="2.65764">
        <ele>733.14</ele>
        <time>2022-07-16T06:36:58Z</time>
      </trkpt>
      <trkpt lat="44.1871" lon="2.65739">
        <ele>734.58</ele>
        <time>2022-07-16T06:37:24Z</time>
      </trkpt>
      <trkpt lat="44.187" lon="2.65734">
        <ele>733.62</ele>
        <time>2022-07-16T06:37:33Z</time>
      </trkpt>
      <trkpt lat="44.18689" lon="2.65733">
        <ele>736.03</ele>
        <time>2022-07-16T06:37:42Z</time>
      </trkpt>
      <trkpt lat="44.18677" lon="2.6573">
        <ele>739.39</ele>
        <time>2022-07-16T06:37:52Z</time>
      </trkpt>
      <trkpt lat="44.18666" lon="2.65726">
        <ele>740.83</ele>
        <time>2022-07-16T06:38:02Z</time>
      </trkpt>
      <trkpt lat="44.18656" lon="2.65719">
        <ele>740.83</ele>
        <time>2022-07-16T06:38:13Z</time>
      </trkpt>
      <trkpt lat="44.18647" lon="2.6571">
        <ele>739.87</ele>
        <time>2022-07-16T06:38:23Z</time>
      </trkpt>
      <trkpt lat="44.18639" lon="2.65701">
        <ele>739.39</ele>
        <time>2022-07-16T06:38:33Z</time>
      </trkpt>
      <trkpt lat="44.18631" lon="2.65691">
        <ele>736.99</ele>
        <time>2022-07-16T06:38:44Z</time>
      </trkpt>
      <trkpt lat="44.18621" lon="2.65682">
        <ele>737.95</ele>
        <time>2022-07-16T06:38:54Z</time>
      </trkpt>
      <trkpt lat="44.18608" lon="2.65674">
        <ele>741.79</ele>
        <time>2022-07-16T06:39:04Z</time>
      </trkpt>
      <trkpt lat="44.18598" lon="2.65664">
        <ele>744.68</ele>
        <time>2022-07-16T06:39:14Z</time>
      </trkpt>
      <trkpt lat="44.1859" lon="2.65655">
        <ele>744.68</ele>
        <time>2022-07-16T06:39:24Z</time>
      </trkpt>
      <trkpt lat="44.18583" lon="2.65644">
        <ele>742.76</ele>
        <time>2022-07-16T06:39:34Z</time>
      </trkpt>
      <trkpt lat="44.18574" lon="2.65633">
        <ele>741.31</ele>
        <time>2022-07-16T06:39:45Z</time>
      </trkpt>
      <trkpt lat="44.18562" lon="2.65623">
        <ele>738.43</ele>
        <time>2022-07-16T06:39:58Z</time>
      </trkpt>
      <trkpt lat="44.18554" lon="2.65612">
        <ele>738.43</ele>
        <time>2022-07-16T06:40:07Z</time>
      </trkpt>
      <trkpt lat="44.18544" lon="2.65605">
        <ele>742.28</ele>
        <time>2022-07-16T06:40:17Z</time>
      </trkpt>
      <trkpt lat="44.18533" lon="2.65601">
        <ele>754.29</ele>
        <time>2022-07-16T06:41:06Z</time>
      </trkpt>
      <trkpt lat="44.18527" lon="2.65599">
        <ele>764.39</ele>
        <time>2022-07-16T06:42:22Z</time>
      </trkpt>
      <trkpt lat="44.18518" lon="2.65592">
        <ele>765.35</ele>
        <time>2022-07-16T06:42:30Z</time>
      </trkpt>
      <trkpt lat="44.1851" lon="2.65583">
        <ele>764.39</ele>
        <time>2022-07-16T06:42:39Z</time>
      </trkpt>
      <trkpt lat="44.185" lon="2.65574">
        <ele>763.9</ele>
        <time>2022-07-16T06:42:48Z</time>
      </trkpt>
      <trkpt lat="44.18486" lon="2.65567">
        <ele>763.9</ele>
        <time>2022-07-16T06:42:58Z</time>
      </trkpt>
      <trkpt lat="44.18475" lon="2.65561">
        <ele>763.42</ele>
        <time>2022-07-16T06:43:07Z</time>
      </trkpt>
      <trkpt lat="44.18464" lon="2.65554">
        <ele>764.87</ele>
        <time>2022-07-16T06:43:17Z</time>
      </trkpt>
      <trkpt lat="44.18451" lon="2.65542">
        <ele>765.83</ele>
        <time>2022-07-16T06:43:31Z</time>
      </trkpt>
      <trkpt lat="44.18447" lon="2.65511">
        <ele>766.31</ele>
        <time>2022-07-16T06:43:51Z</time>
      </trkpt>
      <trkpt lat="44.18442" lon="2.65496">
        <ele>767.27</ele>
        <time>2022-07-16T06:44:00Z</time>
      </trkpt>
      <trkpt lat="44.18437" lon="2.65483">
        <ele>768.71</ele>
        <time>2022-07-16T06:44:08Z</time>
      </trkpt>
      <trkpt lat="44.18432" lon="2.65467">
        <ele>770.63</ele>
        <time>2022-07-16T06:44:18Z</time>
      </trkpt>
      <trkpt lat="44.18427" lon="2.65454">
        <ele>773.04</ele>
        <time>2022-07-16T06:44:26Z</time>
      </trkpt>
      <trkpt lat="44.18423" lon="2.6544">
        <ele>775.44</ele>
        <time>2022-07-16T06:44:35Z</time>
      </trkpt>
      <trkpt lat="44.18419" lon="2.65425">
        <ele>776.4</ele>
        <time>2022-07-16T06:44:43Z</time>
      </trkpt>
      <trkpt lat="44.18415" lon="2.6541">
        <ele>775.92</ele>
        <time>2022-07-16T06:44:52Z</time>
      </trkpt>
      <trkpt lat="44.18411" lon="2.65394">
        <ele>776.4</ele>
        <time>2022-07-16T06:45:00Z</time>
      </trkpt>
      <trkpt lat="44.18407" lon="2.65379">
        <ele>777.84</ele>
        <time>2022-07-16T06:45:08Z</time>
      </trkpt>
      <trkpt lat="44.184" lon="2.65366">
        <ele>778.32</ele>
        <time>2022-07-16T06:45:17Z</time>
      </trkpt>
      <trkpt lat="44.1839" lon="2.65347">
        <ele>780.73</ele>
        <time>2022-07-16T06:45:30Z</time>
      </trkpt>
      <trkpt lat="44.18382" lon="2.65335">
        <ele>782.17</ele>
        <time>2022-07-16T06:45:38Z</time>
      </trkpt>
      <trkpt lat="44.18373" lon="2.65324">
        <ele>783.61</ele>
        <time>2022-07-16T06:45:46Z</time>
      </trkpt>
      <trkpt lat="44.18364" lon="2.65316">
        <ele>785.05</ele>
        <time>2022-07-16T06:45:54Z</time>
      </trkpt>
      <trkpt lat="44.18353" lon="2.65308">
        <ele>786.02</ele>
        <time>2022-07-16T06:46:03Z</time>
      </trkpt>
      <trkpt lat="44.18343" lon="2.653">
        <ele>786.5</ele>
        <time>2022-07-16T06:46:11Z</time>
      </trkpt>
      <trkpt lat="44.18331" lon="2.65292">
        <ele>786.5</ele>
        <time>2022-07-16T06:46:20Z</time>
      </trkpt>
      <trkpt lat="44.18321" lon="2.65286">
        <ele>786.98</ele>
        <time>2022-07-16T06:46:27Z</time>
      </trkpt>
      <trkpt lat="44.1831" lon="2.65279">
        <ele>786.98</ele>
        <time>2022-07-16T06:46:34Z</time>
      </trkpt>
      <trkpt lat="44.18299" lon="2.65273">
        <ele>786.98</ele>
        <time>2022-07-16T06:46:42Z</time>
      </trkpt>
      <trkpt lat="44.18288" lon="2.65267">
        <ele>786.98</ele>
        <time>2022-07-16T06:46:50Z</time>
      </trkpt>
      <trkpt lat="44.1828" lon="2.65258">
        <ele>786.5</ele>
        <time>2022-07-16T06:46:58Z</time>
      </trkpt>
      <trkpt lat="44.1827" lon="2.65249">
        <ele>786.98</ele>
        <time>2022-07-16T06:47:05Z</time>
      </trkpt>
      <trkpt lat="44.18262" lon="2.6524">
        <ele>786.98</ele>
        <time>2022-07-16T06:47:12Z</time>
      </trkpt>
      <trkpt lat="44.18256" lon="2.65229">
        <ele>787.46</ele>
        <time>2022-07-16T06:47:20Z</time>
      </trkpt>
      <trkpt lat="44.18251" lon="2.65216">
        <ele>787.46</ele>
        <time>2022-07-16T06:47:28Z</time>
      </trkpt>
      <trkpt lat="44.18247" lon="2.65202">
        <ele>786.98</ele>
        <time>2022-07-16T06:47:36Z</time>
      </trkpt>
      <trkpt lat="44.18244" lon="2.65188">
        <ele>786.02</ele>
        <time>2022-07-16T06:47:44Z</time>
      </trkpt>
      <trkpt lat="44.18242" lon="2.65173">
        <ele>785.53</ele>
        <time>2022-07-16T06:47:52Z</time>
      </trkpt>
      <trkpt lat="44.18238" lon="2.65157">
        <ele>784.09</ele>
        <time>2022-07-16T06:48:02Z</time>
      </trkpt>
      <trkpt lat="44.18234" lon="2.65141">
        <ele>784.57</ele>
        <time>2022-07-16T06:48:11Z</time>
      </trkpt>
      <trkpt lat="44.1823" lon="2.65122">
        <ele>788.42</ele>
        <time>2022-07-16T06:48:19Z</time>
      </trkpt>
      <trkpt lat="44.18227" lon="2.65104">
        <ele>789.86</ele>
        <time>2022-07-16T06:48:28Z</time>
      </trkpt>
      <trkpt lat="44.18225" lon="2.65086">
        <ele>791.3</ele>
        <time>2022-07-16T06:48:37Z</time>
      </trkpt>
      <trkpt lat="44.18223" lon="2.65071">
        <ele>792.26</ele>
        <time>2022-07-16T06:48:45Z</time>
      </trkpt>
      <trkpt lat="44.18219" lon="2.65056">
        <ele>790.82</ele>
        <time>2022-07-16T06:48:53Z</time>
      </trkpt>
      <trkpt lat="44.18214" lon="2.65043">
        <ele>791.3</ele>
        <time>2022-07-16T06:49:01Z</time>
      </trkpt>
      <trkpt lat="44.18208" lon="2.65029">
        <ele>791.3</ele>
        <time>2022-07-16T06:49:09Z</time>
      </trkpt>
      <trkpt lat="44.18205" lon="2.65016">
        <ele>789.86</ele>
        <time>2022-07-16T06:49:17Z</time>
      </trkpt>
      <trkpt lat="44.18199" lon="2.65">
        <ele>789.86</ele>
        <time>2022-07-16T06:49:25Z</time>
      </trkpt>
      <trkpt lat="44.18194" lon="2.64985">
        <ele>790.34</ele>
        <time>2022-07-16T06:49:33Z</time>
      </trkpt>
      <trkpt lat="44.1819" lon="2.6497">
        <ele>790.82</ele>
        <time>2022-07-16T06:49:40Z</time>
      </trkpt>
      <trkpt lat="44.18187" lon="2.64955">
        <ele>792.26</ele>
        <time>2022-07-16T06:49:46Z</time>
      </trkpt>
      <trkpt lat="44.18185" lon="2.64941">
        <ele>793.22</ele>
        <time>2022-07-16T06:49:52Z</time>
      </trkpt>
      <trkpt lat="44.18182" lon="2.64926">
        <ele>794.67</ele>
        <time>2022-07-16T06:49:59Z</time>
      </trkpt>
      <trkpt lat="44.18179" lon="2.64913">
        <ele>795.15</ele>
        <time>2022-07-16T06:50:05Z</time>
      </trkpt>
      <trkpt lat="44.18177" lon="2.649">
        <ele>795.63</ele>
        <time>2022-07-16T06:50:12Z</time>
      </trkpt>
      <trkpt lat="44.18174" lon="2.64886">
        <ele>795.15</ele>
        <time>2022-07-16T06:50:19Z</time>
      </trkpt>
      <trkpt lat="44.18172" lon="2.64873">
        <ele>795.15</ele>
        <time>2022-07-16T06:50:25Z</time>
      </trkpt>
      <trkpt lat="44.1817" lon="2.6486">
        <ele>794.19</ele>
        <time>2022-07-16T06:50:31Z</time>
      </trkpt>
      <trkpt lat="44.18168" lon="2.64847">
        <ele>793.71</ele>
        <time>2022-07-16T06:50:37Z</time>
      </trkpt>
      <trkpt lat="44.18166" lon="2.64834">
        <ele>793.22</ele>
        <time>2022-07-16T06:50:43Z</time>
      </trkpt>
      <trkpt lat="44.18165" lon="2.64821">
        <ele>792.26</ele>
        <time>2022-07-16T06:50:49Z</time>
      </trkpt>
      <trkpt lat="44.18163" lon="2.64807">
        <ele>791.78</ele>
        <time>2022-07-16T06:50:56Z</time>
      </trkpt>
      <trkpt lat="44.18162" lon="2.64793">
        <ele>790.82</ele>
        <time>2022-07-16T06:51:03Z</time>
      </trkpt>
      <trkpt lat="44.18162" lon="2.64779">
        <ele>790.82</ele>
        <time>2022-07-16T06:51:10Z</time>
      </trkpt>
      <trkpt lat="44.18161" lon="2.64764">
        <ele>790.82</ele>
        <time>2022-07-16T06:51:15Z</time>
      </trkpt>
      <trkpt lat="44.1816" lon="2.64751">
        <ele>791.3</ele>
        <time>2022-07-16T06:51:19Z</time>
      </trkpt>
      <trkpt lat="44.18159" lon="2.64738">
        <ele>790.82</ele>
        <time>2022-07-16T06:51:26Z</time>
      </trkpt>
      <trkpt lat="44.18159" lon="2.64724">
        <ele>790.82</ele>
        <time>2022-07-16T06:51:33Z</time>
      </trkpt>
      <trkpt lat="44.18158" lon="2.6471">
        <ele>791.3</ele>
        <time>2022-07-16T06:51:40Z</time>
      </trkpt>
      <trkpt lat="44.18157" lon="2.64696">
        <ele>792.26</ele>
        <time>2022-07-16T06:51:46Z</time>
      </trkpt>
      <trkpt lat="44.18156" lon="2.64681">
        <ele>792.74</ele>
        <time>2022-07-16T06:51:53Z</time>
      </trkpt>
      <trkpt lat="44.18154" lon="2.64667">
        <ele>792.74</ele>
        <time>2022-07-16T06:52:00Z</time>
      </trkpt>
      <trkpt lat="44.18153" lon="2.64652">
        <ele>792.26</ele>
        <time>2022-07-16T06:52:07Z</time>
      </trkpt>
      <trkpt lat="44.18151" lon="2.64637">
        <ele>791.3</ele>
        <time>2022-07-16T06:52:14Z</time>
      </trkpt>
      <trkpt lat="44.1815" lon="2.64622">
        <ele>791.3</ele>
        <time>2022-07-16T06:52:21Z</time>
      </trkpt>
      <trkpt lat="44.18149" lon="2.64608">
        <ele>791.3</ele>
        <time>2022-07-16T06:52:27Z</time>
      </trkpt>
      <trkpt lat="44.18148" lon="2.64595">
        <ele>791.78</ele>
        <time>2022-07-16T06:52:33Z</time>
      </trkpt>
      <trkpt lat="44.18147" lon="2.6458">
        <ele>791.78</ele>
        <time>2022-07-16T06:52:40Z</time>
      </trkpt>
      <trkpt lat="44.18146" lon="2.64568">
        <ele>791.78</ele>
        <time>2022-07-16T06:52:46Z</time>
      </trkpt>
      <trkpt lat="44.18145" lon="2.64555">
        <ele>792.26</ele>
        <time>2022-07-16T06:52:52Z</time>
      </trkpt>
      <trkpt lat="44.18144" lon="2.64541">
        <ele>791.78</ele>
        <time>2022-07-16T06:52:59Z</time>
      </trkpt>
      <trkpt lat="44.18142" lon="2.64527">
        <ele>791.78</ele>
        <time>2022-07-16T06:53:06Z</time>
      </trkpt>
      <trkpt lat="44.18141" lon="2.64513">
        <ele>791.3</ele>
        <time>2022-07-16T06:53:13Z</time>
      </trkpt>
      <trkpt lat="44.18139" lon="2.64498">
        <ele>790.82</ele>
        <time>2022-07-16T06:53:22Z</time>
      </trkpt>
      <trkpt lat="44.18141" lon="2.6448">
        <ele>787.94</ele>
        <time>2022-07-16T06:53:33Z</time>
      </trkpt>
      <trkpt lat="44.18147" lon="2.64456">
        <ele>784.09</ele>
        <time>2022-07-16T06:53:48Z</time>
      </trkpt>
      <trkpt lat="44.18156" lon="2.64441">
        <ele>781.69</ele>
        <time>2022-07-16T06:53:59Z</time>
      </trkpt>
      <trkpt lat="44.18165" lon="2.64426">
        <ele>781.69</ele>
        <time>2022-07-16T06:54:08Z</time>
      </trkpt>
      <trkpt lat="44.18172" lon="2.64408">
        <ele>782.17</ele>
        <time>2022-07-16T06:54:17Z</time>
      </trkpt>
      <trkpt lat="44.18179" lon="2.64394">
        <ele>781.21</ele>
        <time>2022-07-16T06:54:26Z</time>
      </trkpt>
      <trkpt lat="44.18185" lon="2.64378">
        <ele>782.65</ele>
        <time>2022-07-16T06:54:34Z</time>
      </trkpt>
      <trkpt lat="44.1819" lon="2.64364">
        <ele>782.65</ele>
        <time>2022-07-16T06:54:42Z</time>
      </trkpt>
      <trkpt lat="44.18195" lon="2.64348">
        <ele>785.05</ele>
        <time>2022-07-16T06:54:49Z</time>
      </trkpt>
      <trkpt lat="44.182" lon="2.64337">
        <ele>786.5</ele>
        <time>2022-07-16T06:54:56Z</time>
      </trkpt>
      <trkpt lat="44.18206" lon="2.64325">
        <ele>787.94</ele>
        <time>2022-07-16T06:55:04Z</time>
      </trkpt>
      <trkpt lat="44.1821" lon="2.64313">
        <ele>788.9</ele>
        <time>2022-07-16T06:55:11Z</time>
      </trkpt>
      <trkpt lat="44.18215" lon="2.64302">
        <ele>789.38</ele>
        <time>2022-07-16T06:55:18Z</time>
      </trkpt>
      <trkpt lat="44.1822" lon="2.6429">
        <ele>789.38</ele>
        <time>2022-07-16T06:55:26Z</time>
      </trkpt>
      <trkpt lat="44.18225" lon="2.64279">
        <ele>789.86</ele>
        <time>2022-07-16T06:55:33Z</time>
      </trkpt>
      <trkpt lat="44.18231" lon="2.64267">
        <ele>789.86</ele>
        <time>2022-07-16T06:55:40Z</time>
      </trkpt>
      <trkpt lat="44.18236" lon="2.64255">
        <ele>789.38</ele>
        <time>2022-07-16T06:55:48Z</time>
      </trkpt>
      <trkpt lat="44.18241" lon="2.64243">
        <ele>789.38</ele>
        <time>2022-07-16T06:55:55Z</time>
      </trkpt>
      <trkpt lat="44.18246" lon="2.64232">
        <ele>789.38</ele>
        <time>2022-07-16T06:56:02Z</time>
      </trkpt>
      <trkpt lat="44.18252" lon="2.64219">
        <ele>788.9</ele>
        <time>2022-07-16T06:56:10Z</time>
      </trkpt>
      <trkpt lat="44.18258" lon="2.64203">
        <ele>788.42</ele>
        <time>2022-07-16T06:56:20Z</time>
      </trkpt>
      <trkpt lat="44.18265" lon="2.64189">
        <ele>786.5</ele>
        <time>2022-07-16T06:56:29Z</time>
      </trkpt>
      <trkpt lat="44.18272" lon="2.64178">
        <ele>784.09</ele>
        <time>2022-07-16T06:56:37Z</time>
      </trkpt>
      <trkpt lat="44.18279" lon="2.64167">
        <ele>782.17</ele>
        <time>2022-07-16T06:56:46Z</time>
      </trkpt>
      <trkpt lat="44.18286" lon="2.64155">
        <ele>781.21</ele>
        <time>2022-07-16T06:56:54Z</time>
      </trkpt>
      <trkpt lat="44.18293" lon="2.64143">
        <ele>779.77</ele>
        <time>2022-07-16T06:57:02Z</time>
      </trkpt>
      <trkpt lat="44.183" lon="2.64129">
        <ele>777.84</ele>
        <time>2022-07-16T06:57:12Z</time>
      </trkpt>
      <trkpt lat="44.18308" lon="2.64117">
        <ele>774.48</ele>
        <time>2022-07-16T06:57:22Z</time>
      </trkpt>
      <trkpt lat="44.18315" lon="2.64101">
        <ele>773.52</ele>
        <time>2022-07-16T06:57:31Z</time>
      </trkpt>
      <trkpt lat="44.18321" lon="2.64079">
        <ele>777.84</ele>
        <time>2022-07-16T06:57:40Z</time>
      </trkpt>
      <trkpt lat="44.18328" lon="2.64055">
        <ele>779.77</ele>
        <time>2022-07-16T06:57:53Z</time>
      </trkpt>
      <trkpt lat="44.18334" lon="2.64034">
        <ele>774.48</ele>
        <time>2022-07-16T06:58:07Z</time>
      </trkpt>
      <trkpt lat="44.18337" lon="2.64011">
        <ele>768.71</ele>
        <time>2022-07-16T06:58:20Z</time>
      </trkpt>
      <trkpt lat="44.18339" lon="2.63991">
        <ele>768.23</ele>
        <time>2022-07-16T06:58:30Z</time>
      </trkpt>
      <trkpt lat="44.18338" lon="2.63962">
        <ele>777.36</ele>
        <time>2022-07-16T06:58:40Z</time>
      </trkpt>
      <trkpt lat="44.18339" lon="2.63947">
        <ele>776.4</ele>
        <time>2022-07-16T06:58:48Z</time>
      </trkpt>
      <trkpt lat="44.18339" lon="2.63927">
        <ele>778.32</ele>
        <time>2022-07-16T06:59:11Z</time>
      </trkpt>
      <trkpt lat="44.18339" lon="2.63913">
        <ele>778.81</ele>
        <time>2022-07-16T06:59:19Z</time>
      </trkpt>
      <trkpt lat="44.18339" lon="2.63898">
        <ele>779.29</ele>
        <time>2022-07-16T06:59:29Z</time>
      </trkpt>
      <trkpt lat="44.18342" lon="2.63884">
        <ele>777.84</ele>
        <time>2022-07-16T06:59:40Z</time>
      </trkpt>
      <trkpt lat="44.18341" lon="2.63864">
        <ele>778.81</ele>
        <time>2022-07-16T07:00:02Z</time>
      </trkpt>
      <trkpt lat="44.18339" lon="2.63849">
        <ele>777.84</ele>
        <time>2022-07-16T07:00:13Z</time>
      </trkpt>
      <trkpt lat="44.18338" lon="2.63835">
        <ele>776.88</ele>
        <time>2022-07-16T07:00:23Z</time>
      </trkpt>
      <trkpt lat="44.18336" lon="2.63821">
        <ele>773.04</ele>
        <time>2022-07-16T07:00:35Z</time>
      </trkpt>
      <trkpt lat="44.18334" lon="2.63806">
        <ele>771.6</ele>
        <time>2022-07-16T07:00:44Z</time>
      </trkpt>
      <trkpt lat="44.18329" lon="2.63795">
        <ele>771.11</ele>
        <time>2022-07-16T07:00:52Z</time>
      </trkpt>
      <trkpt lat="44.18323" lon="2.63782">
        <ele>770.15</ele>
        <time>2022-07-16T07:01:01Z</time>
      </trkpt>
      <trkpt lat="44.18318" lon="2.63769">
        <ele>768.71</ele>
        <time>2022-07-16T07:01:11Z</time>
      </trkpt>
      <trkpt lat="44.18314" lon="2.63754">
        <ele>767.27</ele>
        <time>2022-07-16T07:01:22Z</time>
      </trkpt>
      <trkpt lat="44.18309" lon="2.63738">
        <ele>764.87</ele>
        <time>2022-07-16T07:01:34Z</time>
      </trkpt>
      <trkpt lat="44.18301" lon="2.63722">
        <ele>763.42</ele>
        <time>2022-07-16T07:01:44Z</time>
      </trkpt>
      <trkpt lat="44.18296" lon="2.63709">
        <ele>760.06</ele>
        <time>2022-07-16T07:01:54Z</time>
      </trkpt>
      <trkpt lat="44.18292" lon="2.63694">
        <ele>756.21</ele>
        <time>2022-07-16T07:02:04Z</time>
      </trkpt>
      <trkpt lat="44.18286" lon="2.63678">
        <ele>755.73</ele>
        <time>2022-07-16T07:02:15Z</time>
      </trkpt>
      <trkpt lat="44.18277" lon="2.63663">
        <ele>757.18</ele>
        <time>2022-07-16T07:02:26Z</time>
      </trkpt>
      <trkpt lat="44.18269" lon="2.63649">
        <ele>759.1</ele>
        <time>2022-07-16T07:02:35Z</time>
      </trkpt>
      <trkpt lat="44.18263" lon="2.63635">
        <ele>760.06</ele>
        <time>2022-07-16T07:02:44Z</time>
      </trkpt>
      <trkpt lat="44.18257" lon="2.63621">
        <ele>759.1</ele>
        <time>2022-07-16T07:02:54Z</time>
      </trkpt>
      <trkpt lat="44.18252" lon="2.63606">
        <ele>755.73</ele>
        <time>2022-07-16T07:03:05Z</time>
      </trkpt>
      <trkpt lat="44.18248" lon="2.6359">
        <ele>754.29</ele>
        <time>2022-07-16T07:03:16Z</time>
      </trkpt>
      <trkpt lat="44.18242" lon="2.63574">
        <ele>753.33</ele>
        <time>2022-07-16T07:03:27Z</time>
      </trkpt>
      <trkpt lat="44.18236" lon="2.6356">
        <ele>753.81</ele>
        <time>2022-07-16T07:03:36Z</time>
      </trkpt>
      <trkpt lat="44.1823" lon="2.63547">
        <ele>752.85</ele>
        <time>2022-07-16T07:03:46Z</time>
      </trkpt>
      <trkpt lat="44.18222" lon="2.63531">
        <ele>754.29</ele>
        <time>2022-07-16T07:03:58Z</time>
      </trkpt>
      <trkpt lat="44.18216" lon="2.63514">
        <ele>763.9</ele>
        <time>2022-07-16T07:04:54Z</time>
      </trkpt>
      <trkpt lat="44.18214" lon="2.635">
        <ele>762.46</ele>
        <time>2022-07-16T07:05:03Z</time>
      </trkpt>
      <trkpt lat="44.18212" lon="2.63486">
        <ele>761.98</ele>
        <time>2022-07-16T07:05:11Z</time>
      </trkpt>
      <trkpt lat="44.18207" lon="2.63471">
        <ele>761.5</ele>
        <time>2022-07-16T07:05:20Z</time>
      </trkpt>
      <trkpt lat="44.18203" lon="2.63457">
        <ele>761.5</ele>
        <time>2022-07-16T07:05:29Z</time>
      </trkpt>
      <trkpt lat="44.18202" lon="2.63443">
        <ele>760.06</ele>
        <time>2022-07-16T07:05:38Z</time>
      </trkpt>
      <trkpt lat="44.18206" lon="2.63429">
        <ele>755.25</ele>
        <time>2022-07-16T07:05:48Z</time>
      </trkpt>
      <trkpt lat="44.18212" lon="2.63416">
        <ele>749.49</ele>
        <time>2022-07-16T07:05:58Z</time>
      </trkpt>
      <trkpt lat="44.18218" lon="2.63401">
        <ele>742.76</ele>
        <time>2022-07-16T07:06:10Z</time>
      </trkpt>
      <trkpt lat="44.18224" lon="2.63381">
        <ele>737.95</ele>
        <time>2022-07-16T07:06:21Z</time>
      </trkpt>
      <trkpt lat="44.18229" lon="2.63363">
        <ele>736.51</ele>
        <time>2022-07-16T07:06:31Z</time>
      </trkpt>
      <trkpt lat="44.18234" lon="2.63346">
        <ele>732.66</ele>
        <time>2022-07-16T07:06:44Z</time>
      </trkpt>
      <trkpt lat="44.18238" lon="2.63327">
        <ele>733.62</ele>
        <time>2022-07-16T07:06:55Z</time>
      </trkpt>
      <trkpt lat="44.18242" lon="2.63313">
        <ele>731.7</ele>
        <time>2022-07-16T07:07:04Z</time>
      </trkpt>
      <trkpt lat="44.18245" lon="2.63298">
        <ele>732.18</ele>
        <time>2022-07-16T07:07:12Z</time>
      </trkpt>
      <trkpt lat="44.18248" lon="2.63283">
        <ele>729.3</ele>
        <time>2022-07-16T07:07:22Z</time>
      </trkpt>
      <trkpt lat="44.18251" lon="2.63266">
        <ele>727.86</ele>
        <time>2022-07-16T07:07:31Z</time>
      </trkpt>
      <trkpt lat="44.18253" lon="2.63248">
        <ele>727.37</ele>
        <time>2022-07-16T07:07:40Z</time>
      </trkpt>
      <trkpt lat="44.18256" lon="2.63231">
        <ele>728.34</ele>
        <time>2022-07-16T07:07:49Z</time>
      </trkpt>
      <trkpt lat="44.18256" lon="2.63212">
        <ele>733.14</ele>
        <time>2022-07-16T07:07:57Z</time>
      </trkpt>
      <trkpt lat="44.18259" lon="2.63196">
        <ele>734.58</ele>
        <time>2022-07-16T07:08:05Z</time>
      </trkpt>
      <trkpt lat="44.1826" lon="2.63181">
        <ele>735.07</ele>
        <time>2022-07-16T07:08:13Z</time>
      </trkpt>
      <trkpt lat="44.18262" lon="2.63168">
        <ele>734.58</ele>
        <time>2022-07-16T07:08:21Z</time>
      </trkpt>
      <trkpt lat="44.18264" lon="2.63153">
        <ele>735.07</ele>
        <time>2022-07-16T07:08:29Z</time>
      </trkpt>
      <trkpt lat="44.18266" lon="2.63138">
        <ele>734.58</ele>
        <time>2022-07-16T07:08:38Z</time>
      </trkpt>
      <trkpt lat="44.18267" lon="2.63123">
        <ele>734.58</ele>
        <time>2022-07-16T07:08:46Z</time>
      </trkpt>
      <trkpt lat="44.18269" lon="2.63109">
        <ele>734.1</ele>
        <time>2022-07-16T07:08:54Z</time>
      </trkpt>
      <trkpt lat="44.18271" lon="2.63093">
        <ele>734.1</ele>
        <time>2022-07-16T07:09:02Z</time>
      </trkpt>
      <trkpt lat="44.18273" lon="2.63076">
        <ele>736.03</ele>
        <time>2022-07-16T07:09:10Z</time>
      </trkpt>
      <trkpt lat="44.18274" lon="2.63062">
        <ele>736.51</ele>
        <time>2022-07-16T07:09:18Z</time>
      </trkpt>
      <trkpt lat="44.18275" lon="2.63047">
        <ele>736.99</ele>
        <time>2022-07-16T07:09:25Z</time>
      </trkpt>
      <trkpt lat="44.18276" lon="2.6303">
        <ele>737.95</ele>
        <time>2022-07-16T07:09:33Z</time>
      </trkpt>
      <trkpt lat="44.18275" lon="2.63015">
        <ele>738.91</ele>
        <time>2022-07-16T07:09:41Z</time>
      </trkpt>
      <trkpt lat="44.18274" lon="2.63">
        <ele>738.43</ele>
        <time>2022-07-16T07:09:49Z</time>
      </trkpt>
      <trkpt lat="44.18272" lon="2.62985">
        <ele>739.87</ele>
        <time>2022-07-16T07:09:57Z</time>
      </trkpt>
      <trkpt lat="44.18271" lon="2.62971">
        <ele>740.35</ele>
        <time>2022-07-16T07:10:05Z</time>
      </trkpt>
      <trkpt lat="44.1827" lon="2.62954">
        <ele>738.91</ele>
        <time>2022-07-16T07:10:14Z</time>
      </trkpt>
      <trkpt lat="44.18267" lon="2.6294">
        <ele>738.43</ele>
        <time>2022-07-16T07:10:21Z</time>
      </trkpt>
      <trkpt lat="44.18264" lon="2.62924">
        <ele>738.43</ele>
        <time>2022-07-16T07:10:30Z</time>
      </trkpt>
      <trkpt lat="44.18262" lon="2.6291">
        <ele>738.91</ele>
        <time>2022-07-16T07:10:38Z</time>
      </trkpt>
      <trkpt lat="44.18259" lon="2.62896">
        <ele>737.47</ele>
        <time>2022-07-16T07:10:47Z</time>
      </trkpt>
      <trkpt lat="44.18257" lon="2.62882">
        <ele>734.1</ele>
        <time>2022-07-16T07:10:56Z</time>
      </trkpt>
      <trkpt lat="44.18254" lon="2.62865">
        <ele>731.22</ele>
        <time>2022-07-16T07:11:06Z</time>
      </trkpt>
      <trkpt lat="44.1825" lon="2.62846">
        <ele>735.07</ele>
        <time>2022-07-16T07:11:13Z</time>
      </trkpt>
      <trkpt lat="44.18247" lon="2.62832">
        <ele>736.51</ele>
        <time>2022-07-16T07:11:21Z</time>
      </trkpt>
      <trkpt lat="44.18245" lon="2.62816">
        <ele>735.07</ele>
        <time>2022-07-16T07:11:30Z</time>
      </trkpt>
      <trkpt lat="44.18242" lon="2.62799">
        <ele>734.1</ele>
        <time>2022-07-16T07:11:39Z</time>
      </trkpt>
      <trkpt lat="44.18239" lon="2.62783">
        <ele>732.18</ele>
        <time>2022-07-16T07:11:49Z</time>
      </trkpt>
      <trkpt lat="44.18237" lon="2.62768">
        <ele>729.3</ele>
        <time>2022-07-16T07:11:58Z</time>
      </trkpt>
      <trkpt lat="44.18233" lon="2.62755">
        <ele>729.3</ele>
        <time>2022-07-16T07:12:05Z</time>
      </trkpt>
      <trkpt lat="44.18229" lon="2.6274">
        <ele>729.3</ele>
        <time>2022-07-16T07:12:13Z</time>
      </trkpt>
      <trkpt lat="44.18225" lon="2.62728">
        <ele>728.82</ele>
        <time>2022-07-16T07:12:21Z</time>
      </trkpt>
      <trkpt lat="44.1822" lon="2.62715">
        <ele>727.37</ele>
        <time>2022-07-16T07:12:30Z</time>
      </trkpt>
      <trkpt lat="44.18215" lon="2.62699">
        <ele>726.41</ele>
        <time>2022-07-16T07:12:38Z</time>
      </trkpt>
      <trkpt lat="44.1821" lon="2.62685">
        <ele>727.86</ele>
        <time>2022-07-16T07:12:45Z</time>
      </trkpt>
      <trkpt lat="44.18203" lon="2.62668">
        <ele>729.3</ele>
        <time>2022-07-16T07:12:54Z</time>
      </trkpt>
      <trkpt lat="44.18197" lon="2.62654">
        <ele>729.3</ele>
        <time>2022-07-16T07:13:03Z</time>
      </trkpt>
      <trkpt lat="44.18189" lon="2.62643">
        <ele>729.3</ele>
        <time>2022-07-16T07:13:11Z</time>
      </trkpt>
      <trkpt lat="44.18183" lon="2.62632">
        <ele>729.3</ele>
        <time>2022-07-16T07:13:18Z</time>
      </trkpt>
      <trkpt lat="44.18175" lon="2.62621">
        <ele>730.26</ele>
        <time>2022-07-16T07:13:26Z</time>
      </trkpt>
      <trkpt lat="44.18168" lon="2.6261">
        <ele>730.74</ele>
        <time>2022-07-16T07:13:33Z</time>
      </trkpt>
      <trkpt lat="44.18161" lon="2.62599">
        <ele>730.74</ele>
        <time>2022-07-16T07:13:41Z</time>
      </trkpt>
      <trkpt lat="44.18154" lon="2.62588">
        <ele>731.22</ele>
        <time>2022-07-16T07:13:49Z</time>
      </trkpt>
      <trkpt lat="44.18147" lon="2.62576">
        <ele>730.74</ele>
        <time>2022-07-16T07:13:57Z</time>
      </trkpt>
      <trkpt lat="44.1814" lon="2.62566">
        <ele>730.74</ele>
        <time>2022-07-16T07:14:05Z</time>
      </trkpt>
      <trkpt lat="44.18133" lon="2.62556">
        <ele>730.26</ele>
        <time>2022-07-16T07:14:13Z</time>
      </trkpt>
      <trkpt lat="44.18126" lon="2.62544">
        <ele>728.82</ele>
        <time>2022-07-16T07:14:21Z</time>
      </trkpt>
      <trkpt lat="44.18119" lon="2.62534">
        <ele>728.82</ele>
        <time>2022-07-16T07:14:28Z</time>
      </trkpt>
      <trkpt lat="44.18112" lon="2.62524">
        <ele>728.34</ele>
        <time>2022-07-16T07:14:36Z</time>
      </trkpt>
      <trkpt lat="44.18103" lon="2.62517">
        <ele>727.86</ele>
        <time>2022-07-16T07:14:44Z</time>
      </trkpt>
      <trkpt lat="44.18094" lon="2.62512">
        <ele>727.86</ele>
        <time>2022-07-16T07:14:52Z</time>
      </trkpt>
      <trkpt lat="44.18084" lon="2.62506">
        <ele>726.89</ele>
        <time>2022-07-16T07:15:00Z</time>
      </trkpt>
      <trkpt lat="44.18077" lon="2.62498">
        <ele>724.49</ele>
        <time>2022-07-16T07:15:09Z</time>
      </trkpt>
      <trkpt lat="44.18069" lon="2.62493">
        <ele>723.53</ele>
        <time>2022-07-16T07:20:05Z</time>
      </trkpt>
      <trkpt lat="44.1807" lon="2.62475">
        <ele>721.61</ele>
        <time>2022-07-16T07:20:20Z</time>
      </trkpt>
      <trkpt lat="44.18065" lon="2.62458">
        <ele>720.65</ele>
        <time>2022-07-16T07:20:30Z</time>
      </trkpt>
      <trkpt lat="44.18071" lon="2.62441">
        <ele>717.76</ele>
        <time>2022-07-16T07:20:42Z</time>
      </trkpt>
      <trkpt lat="44.18072" lon="2.62426">
        <ele>713.92</ele>
        <time>2022-07-16T07:20:52Z</time>
      </trkpt>
      <trkpt lat="44.18073" lon="2.62408">
        <ele>714.4</ele>
        <time>2022-07-16T07:21:01Z</time>
      </trkpt>
      <trkpt lat="44.1808" lon="2.62394">
        <ele>716.8</ele>
        <time>2022-07-16T07:21:10Z</time>
      </trkpt>
      <trkpt lat="44.18086" lon="2.62382">
        <ele>720.16</ele>
        <time>2022-07-16T07:21:18Z</time>
      </trkpt>
      <trkpt lat="44.18096" lon="2.62376">
        <ele>721.61</ele>
        <time>2022-07-16T07:21:26Z</time>
      </trkpt>
      <trkpt lat="44.18112" lon="2.62372">
        <ele>721.13</ele>
        <time>2022-07-16T07:22:02Z</time>
      </trkpt>
      <trkpt lat="44.1812" lon="2.6236">
        <ele>723.05</ele>
        <time>2022-07-16T07:22:38Z</time>
      </trkpt>
      <trkpt lat="44.18127" lon="2.62347">
        <ele>720.16</ele>
        <time>2022-07-16T07:22:47Z</time>
      </trkpt>
      <trkpt lat="44.18135" lon="2.62334">
        <ele>717.76</ele>
        <time>2022-07-16T07:22:56Z</time>
      </trkpt>
      <trkpt lat="44.18145" lon="2.62324">
        <ele>716.32</ele>
        <time>2022-07-16T07:23:06Z</time>
      </trkpt>
      <trkpt lat="44.18156" lon="2.62317">
        <ele>714.88</ele>
        <time>2022-07-16T07:23:15Z</time>
      </trkpt>
      <trkpt lat="44.18163" lon="2.62289">
        <ele>709.59</ele>
        <time>2022-07-16T07:23:34Z</time>
      </trkpt>
      <trkpt lat="44.18159" lon="2.62261">
        <ele>703.34</ele>
        <time>2022-07-16T07:23:51Z</time>
      </trkpt>
      <trkpt lat="44.18156" lon="2.62239">
        <ele>695.65</ele>
        <time>2022-07-16T07:24:07Z</time>
      </trkpt>
      <trkpt lat="44.18149" lon="2.62217">
        <ele>690.36</ele>
        <time>2022-07-16T07:24:21Z</time>
      </trkpt>
      <trkpt lat="44.18143" lon="2.62196">
        <ele>686.52</ele>
        <time>2022-07-16T07:24:35Z</time>
      </trkpt>
      <trkpt lat="44.18133" lon="2.62176">
        <ele>687</ele>
        <time>2022-07-16T07:24:49Z</time>
      </trkpt>
      <trkpt lat="44.18122" lon="2.62155">
        <ele>679.31</ele>
        <time>2022-07-16T07:25:06Z</time>
      </trkpt>
      <trkpt lat="44.18115" lon="2.62139">
        <ele>674.02</ele>
        <time>2022-07-16T07:25:17Z</time>
      </trkpt>
      <trkpt lat="44.18107" lon="2.62124">
        <ele>674.5</ele>
        <time>2022-07-16T07:25:26Z</time>
      </trkpt>
      <trkpt lat="44.18096" lon="2.62114">
        <ele>676.42</ele>
        <time>2022-07-16T07:25:33Z</time>
      </trkpt>
      <trkpt lat="44.18087" lon="2.62107">
        <ele>678.35</ele>
        <time>2022-07-16T07:25:39Z</time>
      </trkpt>
      <trkpt lat="44.18078" lon="2.621">
        <ele>679.79</ele>
        <time>2022-07-16T07:25:46Z</time>
      </trkpt>
      <trkpt lat="44.18067" lon="2.62093">
        <ele>681.71</ele>
        <time>2022-07-16T07:26:12Z</time>
      </trkpt>
      <trkpt lat="44.18069" lon="2.62078">
        <ele>682.19</ele>
        <time>2022-07-16T07:26:21Z</time>
      </trkpt>
      <trkpt lat="44.18072" lon="2.62064">
        <ele>681.23</ele>
        <time>2022-07-16T07:26:28Z</time>
      </trkpt>
      <trkpt lat="44.18074" lon="2.6205">
        <ele>681.23</ele>
        <time>2022-07-16T07:26:36Z</time>
      </trkpt>
      <trkpt lat="44.18076" lon="2.62036">
        <ele>680.75</ele>
        <time>2022-07-16T07:26:44Z</time>
      </trkpt>
      <trkpt lat="44.18079" lon="2.62022">
        <ele>679.31</ele>
        <time>2022-07-16T07:26:52Z</time>
      </trkpt>
      <trkpt lat="44.18082" lon="2.62006">
        <ele>678.35</ele>
        <time>2022-07-16T07:27:00Z</time>
      </trkpt>
      <trkpt lat="44.18084" lon="2.61991">
        <ele>677.87</ele>
        <time>2022-07-16T07:27:08Z</time>
      </trkpt>
      <trkpt lat="44.18087" lon="2.61977">
        <ele>676.91</ele>
        <time>2022-07-16T07:27:16Z</time>
      </trkpt>
      <trkpt lat="44.18089" lon="2.61964">
        <ele>675.94</ele>
        <time>2022-07-16T07:27:24Z</time>
      </trkpt>
      <trkpt lat="44.1809" lon="2.6195">
        <ele>674.98</ele>
        <time>2022-07-16T07:27:31Z</time>
      </trkpt>
      <trkpt lat="44.18089" lon="2.61935">
        <ele>673.54</ele>
        <time>2022-07-16T07:27:38Z</time>
      </trkpt>
      <trkpt lat="44.18094" lon="2.61922">
        <ele>671.62</ele>
        <time>2022-07-16T07:27:46Z</time>
      </trkpt>
      <trkpt lat="44.18105" lon="2.61908">
        <ele>670.66</ele>
        <time>2022-07-16T07:27:55Z</time>
      </trkpt>
      <trkpt lat="44.18117" lon="2.61907">
        <ele>672.1</ele>
        <time>2022-07-16T07:28:03Z</time>
      </trkpt>
      <trkpt lat="44.18127" lon="2.6191">
        <ele>672.58</ele>
        <time>2022-07-16T07:28:10Z</time>
      </trkpt>
      <trkpt lat="44.18138" lon="2.61911">
        <ele>673.06</ele>
        <time>2022-07-16T07:28:17Z</time>
      </trkpt>
      <trkpt lat="44.18148" lon="2.61911">
        <ele>673.54</ele>
        <time>2022-07-16T07:28:24Z</time>
      </trkpt>
      <trkpt lat="44.18159" lon="2.61912">
        <ele>672.1</ele>
        <time>2022-07-16T07:28:31Z</time>
      </trkpt>
      <trkpt lat="44.18169" lon="2.61913">
        <ele>671.14</ele>
        <time>2022-07-16T07:28:38Z</time>
      </trkpt>
      <trkpt lat="44.18179" lon="2.61915">
        <ele>670.18</ele>
        <time>2022-07-16T07:28:45Z</time>
      </trkpt>
      <trkpt lat="44.18189" lon="2.61916">
        <ele>668.73</ele>
        <time>2022-07-16T07:28:51Z</time>
      </trkpt>
      <trkpt lat="44.18199" lon="2.61917">
        <ele>668.73</ele>
        <time>2022-07-16T07:28:58Z</time>
      </trkpt>
      <trkpt lat="44.1821" lon="2.61918">
        <ele>667.29</ele>
        <time>2022-07-16T07:29:05Z</time>
      </trkpt>
      <trkpt lat="44.1822" lon="2.6192">
        <ele>665.85</ele>
        <time>2022-07-16T07:29:12Z</time>
      </trkpt>
      <trkpt lat="44.18229" lon="2.61922">
        <ele>664.89</ele>
        <time>2022-07-16T07:29:19Z</time>
      </trkpt>
      <trkpt lat="44.1824" lon="2.61921">
        <ele>663.45</ele>
        <time>2022-07-16T07:29:27Z</time>
      </trkpt>
      <trkpt lat="44.1825" lon="2.61919">
        <ele>662.01</ele>
        <time>2022-07-16T07:29:34Z</time>
      </trkpt>
      <trkpt lat="44.18265" lon="2.6191">
        <ele>661.52</ele>
        <time>2022-07-16T07:29:49Z</time>
      </trkpt>
      <trkpt lat="44.18275" lon="2.61901">
        <ele>662.01</ele>
        <time>2022-07-16T07:29:59Z</time>
      </trkpt>
      <trkpt lat="44.18285" lon="2.61891">
        <ele>662.49</ele>
        <time>2022-07-16T07:30:08Z</time>
      </trkpt>
      <trkpt lat="44.18303" lon="2.61876">
        <ele>662.49</ele>
        <time>2022-07-16T07:30:24Z</time>
      </trkpt>
      <trkpt lat="44.18319" lon="2.61857">
        <ele>662.49</ele>
        <time>2022-07-16T07:30:39Z</time>
      </trkpt>
      <trkpt lat="44.18331" lon="2.61832">
        <ele>662.01</ele>
        <time>2022-07-16T07:30:53Z</time>
      </trkpt>
      <trkpt lat="44.18334" lon="2.61814">
        <ele>657.68</ele>
        <time>2022-07-16T07:31:02Z</time>
      </trkpt>
      <trkpt lat="44.18338" lon="2.61798">
        <ele>655.28</ele>
        <time>2022-07-16T07:31:10Z</time>
      </trkpt>
      <trkpt lat="44.18345" lon="2.61775">
        <ele>654.8</ele>
        <time>2022-07-16T07:31:24Z</time>
      </trkpt>
      <trkpt lat="44.18359" lon="2.61776">
        <ele>657.2</ele>
        <time>2022-07-16T07:31:35Z</time>
      </trkpt>
      <trkpt lat="44.18371" lon="2.61794">
        <ele>658.64</ele>
        <time>2022-07-16T07:31:46Z</time>
      </trkpt>
      <trkpt lat="44.18381" lon="2.61807">
        <ele>657.68</ele>
        <time>2022-07-16T07:31:55Z</time>
      </trkpt>
      <trkpt lat="44.18391" lon="2.6182">
        <ele>652.87</ele>
        <time>2022-07-16T07:32:06Z</time>
      </trkpt>
      <trkpt lat="44.18402" lon="2.61825">
        <ele>651.43</ele>
        <time>2022-07-16T07:32:15Z</time>
      </trkpt>
      <trkpt lat="44.18418" lon="2.6182">
        <ele>650.47</ele>
        <time>2022-07-16T07:32:27Z</time>
      </trkpt>
      <trkpt lat="44.1843" lon="2.61819">
        <ele>648.55</ele>
        <time>2022-07-16T07:32:36Z</time>
      </trkpt>
      <trkpt lat="44.18442" lon="2.61817">
        <ele>647.59</ele>
        <time>2022-07-16T07:32:45Z</time>
      </trkpt>
      <trkpt lat="44.18456" lon="2.61815">
        <ele>647.59</ele>
        <time>2022-07-16T07:32:54Z</time>
      </trkpt>
      <trkpt lat="44.18472" lon="2.61812">
        <ele>648.07</ele>
        <time>2022-07-16T07:33:04Z</time>
      </trkpt>
      <trkpt lat="44.18489" lon="2.6181">
        <ele>648.55</ele>
        <time>2022-07-16T07:33:15Z</time>
      </trkpt>
      <trkpt lat="44.18502" lon="2.61808">
        <ele>649.03</ele>
        <time>2022-07-16T07:33:24Z</time>
      </trkpt>
      <trkpt lat="44.1852" lon="2.61807">
        <ele>650.95</ele>
        <time>2022-07-16T07:33:37Z</time>
      </trkpt>
      <trkpt lat="44.18545" lon="2.61816">
        <ele>649.03</ele>
        <time>2022-07-16T07:33:53Z</time>
      </trkpt>
      <trkpt lat="44.18559" lon="2.6182">
        <ele>648.55</ele>
        <time>2022-07-16T07:34:02Z</time>
      </trkpt>
      <trkpt lat="44.18597" lon="2.61751">
        <ele>649.03</ele>
        <time>2022-07-16T07:34:50Z</time>
      </trkpt>
      <trkpt lat="44.18606" lon="2.61739">
        <ele>647.59</ele>
        <time>2022-07-16T07:34:58Z</time>
      </trkpt>
      <trkpt lat="44.18673" lon="2.61657">
        <ele>649.99</ele>
        <time>2022-07-16T07:36:04Z</time>
      </trkpt>
      <trkpt lat="44.18685" lon="2.61646">
        <ele>650.95</ele>
        <time>2022-07-16T07:36:14Z</time>
      </trkpt>
      <trkpt lat="44.18697" lon="2.61623">
        <ele>653.83</ele>
        <time>2022-07-16T07:36:28Z</time>
      </trkpt>
      <trkpt lat="44.18701" lon="2.61609">
        <ele>653.35</ele>
        <time>2022-07-16T07:36:36Z</time>
      </trkpt>
      <trkpt lat="44.18706" lon="2.61594">
        <ele>651.91</ele>
        <time>2022-07-16T07:36:44Z</time>
      </trkpt>
      <trkpt lat="44.18712" lon="2.61577">
        <ele>653.35</ele>
        <time>2022-07-16T07:36:53Z</time>
      </trkpt>
      <trkpt lat="44.18719" lon="2.61563">
        <ele>653.35</ele>
        <time>2022-07-16T07:37:01Z</time>
      </trkpt>
      <trkpt lat="44.18728" lon="2.61549">
        <ele>653.35</ele>
        <time>2022-07-16T07:37:11Z</time>
      </trkpt>
      <trkpt lat="44.18735" lon="2.61532">
        <ele>652.39</ele>
        <time>2022-07-16T07:37:21Z</time>
      </trkpt>
      <trkpt lat="44.18742" lon="2.61516">
        <ele>649.99</ele>
        <time>2022-07-16T07:37:31Z</time>
      </trkpt>
      <trkpt lat="44.18749" lon="2.61496">
        <ele>648.55</ele>
        <time>2022-07-16T07:37:41Z</time>
      </trkpt>
      <trkpt lat="44.18755" lon="2.61472">
        <ele>647.59</ele>
        <time>2022-07-16T07:37:53Z</time>
      </trkpt>
      <trkpt lat="44.188" lon="2.61434">
        <ele>649.99</ele>
        <time>2022-07-16T07:38:34Z</time>
      </trkpt>
      <trkpt lat="44.18819" lon="2.61404">
        <ele>654.8</ele>
        <time>2022-07-16T07:38:55Z</time>
      </trkpt>
      <trkpt lat="44.18891" lon="2.6134">
        <ele>668.25</ele>
        <time>2022-07-16T07:39:56Z</time>
      </trkpt>
      <trkpt lat="44.18901" lon="2.61331">
        <ele>668.73</ele>
        <time>2022-07-16T07:40:05Z</time>
      </trkpt>
      <trkpt lat="44.18927" lon="2.61306">
        <ele>671.62</ele>
        <time>2022-07-16T07:40:30Z</time>
      </trkpt>
      <trkpt lat="44.18948" lon="2.61296">
        <ele>674.5</ele>
        <time>2022-07-16T07:40:43Z</time>
      </trkpt>
      <trkpt lat="44.18971" lon="2.61285">
        <ele>681.71</ele>
        <time>2022-07-16T07:40:58Z</time>
      </trkpt>
      <trkpt lat="44.18979" lon="2.6127">
        <ele>682.67</ele>
        <time>2022-07-16T07:41:07Z</time>
      </trkpt>
      <trkpt lat="44.18987" lon="2.61247">
        <ele>684.12</ele>
        <time>2022-07-16T07:41:20Z</time>
      </trkpt>
      <trkpt lat="44.19003" lon="2.61208">
        <ele>684.12</ele>
        <time>2022-07-16T07:41:45Z</time>
      </trkpt>
      <trkpt lat="44.19011" lon="2.61177">
        <ele>687</ele>
        <time>2022-07-16T07:42:00Z</time>
      </trkpt>
      <trkpt lat="44.19019" lon="2.61153">
        <ele>690.84</ele>
        <time>2022-07-16T07:42:17Z</time>
      </trkpt>
      <trkpt lat="44.1902" lon="2.61141">
        <ele>696.13</ele>
        <time>2022-07-16T07:42:27Z</time>
      </trkpt>
      <trkpt lat="44.19012" lon="2.61132">
        <ele>697.09</ele>
        <time>2022-07-16T07:42:35Z</time>
      </trkpt>
      <trkpt lat="44.19011" lon="2.61118">
        <ele>696.61</ele>
        <time>2022-07-16T07:42:44Z</time>
      </trkpt>
      <trkpt lat="44.19023" lon="2.61114">
        <ele>695.65</ele>
        <time>2022-07-16T07:42:55Z</time>
      </trkpt>
      <trkpt lat="44.19035" lon="2.61117">
        <ele>694.69</ele>
        <time>2022-07-16T07:43:04Z</time>
      </trkpt>
      <trkpt lat="44.19046" lon="2.6112">
        <ele>694.21</ele>
        <time>2022-07-16T07:43:12Z</time>
      </trkpt>
      <trkpt lat="44.19057" lon="2.61114">
        <ele>693.73</ele>
        <time>2022-07-16T07:43:21Z</time>
      </trkpt>
      <trkpt lat="44.19067" lon="2.61104">
        <ele>693.73</ele>
        <time>2022-07-16T07:43:30Z</time>
      </trkpt>
      <trkpt lat="44.19077" lon="2.61094">
        <ele>692.77</ele>
        <time>2022-07-16T07:43:38Z</time>
      </trkpt>
      <trkpt lat="44.19088" lon="2.61086">
        <ele>691.81</ele>
        <time>2022-07-16T07:43:47Z</time>
      </trkpt>
      <trkpt lat="44.19099" lon="2.6108">
        <ele>690.84</ele>
        <time>2022-07-16T07:43:55Z</time>
      </trkpt>
      <trkpt lat="44.19111" lon="2.61072">
        <ele>689.88</ele>
        <time>2022-07-16T07:44:05Z</time>
      </trkpt>
      <trkpt lat="44.19122" lon="2.61065">
        <ele>690.36</ele>
        <time>2022-07-16T07:44:14Z</time>
      </trkpt>
      <trkpt lat="44.1913" lon="2.61055">
        <ele>693.25</ele>
        <time>2022-07-16T07:44:22Z</time>
      </trkpt>
      <trkpt lat="44.1914" lon="2.61041">
        <ele>695.65</ele>
        <time>2022-07-16T07:44:32Z</time>
      </trkpt>
      <trkpt lat="44.1915" lon="2.61034">
        <ele>695.65</ele>
        <time>2022-07-16T07:44:39Z</time>
      </trkpt>
      <trkpt lat="44.19162" lon="2.61029">
        <ele>693.73</ele>
        <time>2022-07-16T07:44:46Z</time>
      </trkpt>
      <trkpt lat="44.19172" lon="2.61023">
        <ele>693.25</ele>
        <time>2022-07-16T07:44:53Z</time>
      </trkpt>
      <trkpt lat="44.19184" lon="2.61015">
        <ele>691.81</ele>
        <time>2022-07-16T07:45:03Z</time>
      </trkpt>
      <trkpt lat="44.19195" lon="2.61009">
        <ele>690.84</ele>
        <time>2022-07-16T07:45:14Z</time>
      </trkpt>
      <trkpt lat="44.1921" lon="2.61001">
        <ele>691.33</ele>
        <time>2022-07-16T07:45:22Z</time>
      </trkpt>
      <trkpt lat="44.1922" lon="2.60996">
        <ele>691.33</ele>
        <time>2022-07-16T07:45:29Z</time>
      </trkpt>
      <trkpt lat="44.19229" lon="2.60992">
        <ele>691.33</ele>
        <time>2022-07-16T07:45:36Z</time>
      </trkpt>
      <trkpt lat="44.19239" lon="2.60986">
        <ele>690.36</ele>
        <time>2022-07-16T07:45:44Z</time>
      </trkpt>
      <trkpt lat="44.1925" lon="2.6098">
        <ele>689.4</ele>
        <time>2022-07-16T07:45:52Z</time>
      </trkpt>
      <trkpt lat="44.19262" lon="2.60974">
        <ele>687.48</ele>
        <time>2022-07-16T07:46:03Z</time>
      </trkpt>
      <trkpt lat="44.19274" lon="2.60968">
        <ele>686.04</ele>
        <time>2022-07-16T07:46:13Z</time>
      </trkpt>
      <trkpt lat="44.19296" lon="2.60957">
        <ele>684.12</ele>
        <time>2022-07-16T07:46:28Z</time>
      </trkpt>
      <trkpt lat="44.19315" lon="2.60948">
        <ele>684.6</ele>
        <time>2022-07-16T07:46:37Z</time>
      </trkpt>
      <trkpt lat="44.19325" lon="2.60944">
        <ele>683.63</ele>
        <time>2022-07-16T07:46:46Z</time>
      </trkpt>
      <trkpt lat="44.19337" lon="2.60939">
        <ele>680.75</ele>
        <time>2022-07-16T07:46:55Z</time>
      </trkpt>
      <trkpt lat="44.19349" lon="2.60933">
        <ele>677.87</ele>
        <time>2022-07-16T07:47:05Z</time>
      </trkpt>
      <trkpt lat="44.19362" lon="2.60926">
        <ele>676.42</ele>
        <time>2022-07-16T07:47:14Z</time>
      </trkpt>
      <trkpt lat="44.1938" lon="2.60917">
        <ele>676.42</ele>
        <time>2022-07-16T07:47:23Z</time>
      </trkpt>
      <trkpt lat="44.19393" lon="2.60908">
        <ele>674.98</ele>
        <time>2022-07-16T07:47:34Z</time>
      </trkpt>
      <trkpt lat="44.19402" lon="2.60899">
        <ele>673.06</ele>
        <time>2022-07-16T07:47:43Z</time>
      </trkpt>
      <trkpt lat="44.19409" lon="2.60887">
        <ele>670.66</ele>
        <time>2022-07-16T07:47:50Z</time>
      </trkpt>
      <trkpt lat="44.19414" lon="2.60872">
        <ele>665.85</ele>
        <time>2022-07-16T07:47:58Z</time>
      </trkpt>
      <trkpt lat="44.19412" lon="2.60853">
        <ele>663.93</ele>
        <time>2022-07-16T07:48:07Z</time>
      </trkpt>
      <trkpt lat="44.19407" lon="2.60838">
        <ele>663.45</ele>
        <time>2022-07-16T07:48:15Z</time>
      </trkpt>
      <trkpt lat="44.19401" lon="2.60821">
        <ele>663.93</ele>
        <time>2022-07-16T07:48:23Z</time>
      </trkpt>
      <trkpt lat="44.1947" lon="2.60849">
        <ele>651.43</ele>
        <time>2022-07-16T07:49:28Z</time>
      </trkpt>
      <trkpt lat="44.19489" lon="2.60878">
        <ele>639.89</ele>
        <time>2022-07-16T07:49:54Z</time>
      </trkpt>
      <trkpt lat="44.19505" lon="2.60896">
        <ele>637.01</ele>
        <time>2022-07-16T07:50:06Z</time>
      </trkpt>
      <trkpt lat="44.19521" lon="2.6091">
        <ele>637.49</ele>
        <time>2022-07-16T07:50:16Z</time>
      </trkpt>
      <trkpt lat="44.19525" lon="2.6093">
        <ele>639.89</ele>
        <time>2022-07-16T07:50:26Z</time>
      </trkpt>
      <trkpt lat="44.19539" lon="2.60932">
        <ele>636.53</ele>
        <time>2022-07-16T07:50:41Z</time>
      </trkpt>
      <trkpt lat="44.19549" lon="2.60913">
        <ele>631.24</ele>
        <time>2022-07-16T07:50:54Z</time>
      </trkpt>
      <trkpt lat="44.19556" lon="2.60888">
        <ele>629.8</ele>
        <time>2022-07-16T07:51:06Z</time>
      </trkpt>
      <trkpt lat="44.19558" lon="2.60879">
        <ele>635.09</ele>
        <time>2022-07-16T07:51:33Z</time>
      </trkpt>
      <trkpt lat="44.19558" lon="2.60869">
        <ele>637.97</ele>
        <time>2022-07-16T07:52:33Z</time>
      </trkpt>
      <trkpt lat="44.19559" lon="2.60852">
        <ele>634.61</ele>
        <time>2022-07-16T07:52:43Z</time>
      </trkpt>
      <trkpt lat="44.19564" lon="2.60839">
        <ele>633.65</ele>
        <time>2022-07-16T07:52:50Z</time>
      </trkpt>
      <trkpt lat="44.19569" lon="2.60826">
        <ele>633.65</ele>
        <time>2022-07-16T07:52:58Z</time>
      </trkpt>
      <trkpt lat="44.19577" lon="2.60812">
        <ele>632.68</ele>
        <time>2022-07-16T07:53:08Z</time>
      </trkpt>
      <trkpt lat="44.19585" lon="2.60799">
        <ele>629.32</ele>
        <time>2022-07-16T07:53:17Z</time>
      </trkpt>
      <trkpt lat="44.19594" lon="2.60787">
        <ele>625.96</ele>
        <time>2022-07-16T07:53:26Z</time>
      </trkpt>
      <trkpt lat="44.19647" lon="2.60734">
        <ele>621.15</ele>
        <time>2022-07-16T07:56:26Z</time>
      </trkpt>
      <trkpt lat="44.19657" lon="2.60724">
        <ele>623.55</ele>
        <time>2022-07-16T07:56:38Z</time>
      </trkpt>
      <trkpt lat="44.19668" lon="2.60705">
        <ele>624.99</ele>
        <time>2022-07-16T07:56:52Z</time>
      </trkpt>
      <trkpt lat="44.19689" lon="2.60685">
        <ele>624.51</ele>
        <time>2022-07-16T07:57:08Z</time>
      </trkpt>
      <trkpt lat="44.19695" lon="2.60672">
        <ele>625.47</ele>
        <time>2022-07-16T07:57:16Z</time>
      </trkpt>
      <trkpt lat="44.19687" lon="2.60661">
        <ele>625.47</ele>
        <time>2022-07-16T07:57:24Z</time>
      </trkpt>
      <trkpt lat="44.19677" lon="2.60657">
        <ele>625.47</ele>
        <time>2022-07-16T07:57:31Z</time>
      </trkpt>
      <trkpt lat="44.19668" lon="2.60651">
        <ele>626.44</ele>
        <time>2022-07-16T07:57:38Z</time>
      </trkpt>
      <trkpt lat="44.19662" lon="2.60639">
        <ele>625.47</ele>
        <time>2022-07-16T07:57:45Z</time>
      </trkpt>
      <trkpt lat="44.19654" lon="2.60627">
        <ele>623.55</ele>
        <time>2022-07-16T07:57:54Z</time>
      </trkpt>
      <trkpt lat="44.19645" lon="2.60614">
        <ele>623.55</ele>
        <time>2022-07-16T07:58:02Z</time>
      </trkpt>
      <trkpt lat="44.19637" lon="2.60603">
        <ele>623.55</ele>
        <time>2022-07-16T07:58:10Z</time>
      </trkpt>
      <trkpt lat="44.19629" lon="2.60592">
        <ele>624.03</ele>
        <time>2022-07-16T07:58:18Z</time>
      </trkpt>
      <trkpt lat="44.19623" lon="2.60578">
        <ele>624.99</ele>
        <time>2022-07-16T07:58:26Z</time>
      </trkpt>
      <trkpt lat="44.19618" lon="2.60563">
        <ele>626.44</ele>
        <time>2022-07-16T07:58:34Z</time>
      </trkpt>
      <trkpt lat="44.19619" lon="2.60549">
        <ele>626.92</ele>
        <time>2022-07-16T07:58:43Z</time>
      </trkpt>
      <trkpt lat="44.1964" lon="2.60544">
        <ele>628.36</ele>
        <time>2022-07-16T07:59:01Z</time>
      </trkpt>
      <trkpt lat="44.19645" lon="2.60522">
        <ele>629.32</ele>
        <time>2022-07-16T07:59:14Z</time>
      </trkpt>
      <trkpt lat="44.19655" lon="2.60498">
        <ele>630.76</ele>
        <time>2022-07-16T07:59:32Z</time>
      </trkpt>
      <trkpt lat="44.19666" lon="2.60491">
        <ele>629.8</ele>
        <time>2022-07-16T07:59:42Z</time>
      </trkpt>
      <trkpt lat="44.19676" lon="2.60485">
        <ele>629.8</ele>
        <time>2022-07-16T07:59:50Z</time>
      </trkpt>
      <trkpt lat="44.1969" lon="2.60477">
        <ele>631.24</ele>
        <time>2022-07-16T08:00:02Z</time>
      </trkpt>
      <trkpt lat="44.197" lon="2.60466">
        <ele>632.68</ele>
        <time>2022-07-16T08:00:11Z</time>
      </trkpt>
      <trkpt lat="44.19709" lon="2.60455">
        <ele>632.2</ele>
        <time>2022-07-16T08:00:19Z</time>
      </trkpt>
      <trkpt lat="44.19715" lon="2.60442">
        <ele>631.72</ele>
        <time>2022-07-16T08:00:28Z</time>
      </trkpt>
      <trkpt lat="44.19718" lon="2.60425">
        <ele>634.13</ele>
        <time>2022-07-16T08:00:36Z</time>
      </trkpt>
      <trkpt lat="44.19719" lon="2.60406">
        <ele>640.86</ele>
        <time>2022-07-16T08:00:45Z</time>
      </trkpt>
      <trkpt lat="44.19721" lon="2.6039">
        <ele>645.66</ele>
        <time>2022-07-16T08:00:53Z</time>
      </trkpt>
      <trkpt lat="44.19725" lon="2.60376">
        <ele>647.59</ele>
        <time>2022-07-16T08:01:02Z</time>
      </trkpt>
      <trkpt lat="44.19728" lon="2.60361">
        <ele>649.03</ele>
        <time>2022-07-16T08:01:10Z</time>
      </trkpt>
      <trkpt lat="44.19733" lon="2.60346">
        <ele>650.47</ele>
        <time>2022-07-16T08:01:19Z</time>
      </trkpt>
      <trkpt lat="44.1974" lon="2.60335">
        <ele>649.99</ele>
        <time>2022-07-16T08:01:27Z</time>
      </trkpt>
      <trkpt lat="44.19744" lon="2.60318">
        <ele>651.91</ele>
        <time>2022-07-16T08:01:35Z</time>
      </trkpt>
      <trkpt lat="44.19749" lon="2.60302">
        <ele>652.39</ele>
        <time>2022-07-16T08:01:44Z</time>
      </trkpt>
      <trkpt lat="44.19751" lon="2.60285">
        <ele>654.31</ele>
        <time>2022-07-16T08:01:51Z</time>
      </trkpt>
      <trkpt lat="44.19752" lon="2.6027">
        <ele>655.76</ele>
        <time>2022-07-16T08:01:58Z</time>
      </trkpt>
      <trkpt lat="44.19752" lon="2.60255">
        <ele>656.72</ele>
        <time>2022-07-16T08:02:06Z</time>
      </trkpt>
      <trkpt lat="44.19753" lon="2.60239">
        <ele>655.76</ele>
        <time>2022-07-16T08:02:15Z</time>
      </trkpt>
      <trkpt lat="44.19755" lon="2.60223">
        <ele>654.31</ele>
        <time>2022-07-16T08:02:24Z</time>
      </trkpt>
      <trkpt lat="44.19751" lon="2.60208">
        <ele>655.76</ele>
        <time>2022-07-16T08:02:33Z</time>
      </trkpt>
      <trkpt lat="44.19743" lon="2.60197">
        <ele>656.72</ele>
        <time>2022-07-16T08:02:40Z</time>
      </trkpt>
      <trkpt lat="44.19736" lon="2.60185">
        <ele>658.16</ele>
        <time>2022-07-16T08:02:47Z</time>
      </trkpt>
      <trkpt lat="44.19732" lon="2.60172">
        <ele>660.08</ele>
        <time>2022-07-16T08:02:54Z</time>
      </trkpt>
      <trkpt lat="44.19734" lon="2.60158">
        <ele>661.04</ele>
        <time>2022-07-16T08:03:02Z</time>
      </trkpt>
      <trkpt lat="44.19738" lon="2.60144">
        <ele>662.01</ele>
        <time>2022-07-16T08:03:10Z</time>
      </trkpt>
      <trkpt lat="44.19743" lon="2.6013">
        <ele>663.93</ele>
        <time>2022-07-16T08:03:18Z</time>
      </trkpt>
      <trkpt lat="44.19747" lon="2.60118">
        <ele>664.41</ele>
        <time>2022-07-16T08:03:26Z</time>
      </trkpt>
      <trkpt lat="44.19753" lon="2.60105">
        <ele>665.37</ele>
        <time>2022-07-16T08:03:34Z</time>
      </trkpt>
      <trkpt lat="44.19757" lon="2.6009">
        <ele>666.33</ele>
        <time>2022-07-16T08:03:42Z</time>
      </trkpt>
      <trkpt lat="44.19762" lon="2.60076">
        <ele>667.29</ele>
        <time>2022-07-16T08:03:50Z</time>
      </trkpt>
      <trkpt lat="44.19768" lon="2.60064">
        <ele>667.77</ele>
        <time>2022-07-16T08:03:57Z</time>
      </trkpt>
      <trkpt lat="44.19772" lon="2.60051">
        <ele>668.73</ele>
        <time>2022-07-16T08:04:04Z</time>
      </trkpt>
      <trkpt lat="44.19776" lon="2.60038">
        <ele>670.18</ele>
        <time>2022-07-16T08:04:11Z</time>
      </trkpt>
      <trkpt lat="44.19781" lon="2.60025">
        <ele>671.14</ele>
        <time>2022-07-16T08:04:19Z</time>
      </trkpt>
      <trkpt lat="44.19785" lon="2.60009">
        <ele>672.1</ele>
        <time>2022-07-16T08:04:27Z</time>
      </trkpt>
      <trkpt lat="44.19799" lon="2.60008">
        <ele>677.87</ele>
        <time>2022-07-16T08:05:32Z</time>
      </trkpt>
      <trkpt lat="44.1981" lon="2.60011">
        <ele>678.35</ele>
        <time>2022-07-16T08:05:40Z</time>
      </trkpt>
      <trkpt lat="44.19829" lon="2.60015">
        <ele>678.83</ele>
        <time>2022-07-16T08:05:55Z</time>
      </trkpt>
      <trkpt lat="44.19841" lon="2.60017">
        <ele>679.79</ele>
        <time>2022-07-16T08:06:03Z</time>
      </trkpt>
      <trkpt lat="44.19851" lon="2.6002">
        <ele>679.31</ele>
        <time>2022-07-16T08:06:11Z</time>
      </trkpt>
      <trkpt lat="44.19868" lon="2.60021">
        <ele>678.83</ele>
        <time>2022-07-16T08:06:23Z</time>
      </trkpt>
      <trkpt lat="44.19896" lon="2.60024">
        <ele>680.27</ele>
        <time>2022-07-16T08:06:44Z</time>
      </trkpt>
      <trkpt lat="44.19907" lon="2.60026">
        <ele>681.23</ele>
        <time>2022-07-16T08:06:52Z</time>
      </trkpt>
      <trkpt lat="44.19919" lon="2.60029">
        <ele>681.71</ele>
        <time>2022-07-16T08:07:00Z</time>
      </trkpt>
      <trkpt lat="44.19929" lon="2.60032">
        <ele>683.15</ele>
        <time>2022-07-16T08:07:08Z</time>
      </trkpt>
      <trkpt lat="44.1994" lon="2.60037">
        <ele>682.67</ele>
        <time>2022-07-16T08:07:15Z</time>
      </trkpt>
      <trkpt lat="44.19949" lon="2.60043">
        <ele>683.15</ele>
        <time>2022-07-16T08:07:22Z</time>
      </trkpt>
      <trkpt lat="44.19958" lon="2.6005">
        <ele>683.63</ele>
        <time>2022-07-16T08:07:29Z</time>
      </trkpt>
      <trkpt lat="44.19967" lon="2.60058">
        <ele>683.15</ele>
        <time>2022-07-16T08:07:36Z</time>
      </trkpt>
      <trkpt lat="44.19974" lon="2.60067">
        <ele>683.15</ele>
        <time>2022-07-16T08:07:43Z</time>
      </trkpt>
      <trkpt lat="44.19982" lon="2.60076">
        <ele>684.12</ele>
        <time>2022-07-16T08:07:51Z</time>
      </trkpt>
      <trkpt lat="44.19989" lon="2.60086">
        <ele>683.63</ele>
        <time>2022-07-16T08:07:58Z</time>
      </trkpt>
      <trkpt lat="44.19997" lon="2.60097">
        <ele>683.63</ele>
        <time>2022-07-16T08:08:06Z</time>
      </trkpt>
      <trkpt lat="44.20004" lon="2.60108">
        <ele>685.08</ele>
        <time>2022-07-16T08:08:13Z</time>
      </trkpt>
      <trkpt lat="44.2001" lon="2.60118">
        <ele>685.56</ele>
        <time>2022-07-16T08:08:20Z</time>
      </trkpt>
      <trkpt lat="44.20017" lon="2.6013">
        <ele>686.04</ele>
        <time>2022-07-16T08:08:28Z</time>
      </trkpt>
      <trkpt lat="44.20024" lon="2.60142">
        <ele>686.04</ele>
        <time>2022-07-16T08:08:36Z</time>
      </trkpt>
      <trkpt lat="44.2003" lon="2.60159">
        <ele>685.56</ele>
        <time>2022-07-16T08:08:48Z</time>
      </trkpt>
      <trkpt lat="44.20039" lon="2.60172">
        <ele>686.52</ele>
        <time>2022-07-16T08:08:57Z</time>
      </trkpt>
      <trkpt lat="44.20047" lon="2.60185">
        <ele>685.56</ele>
        <time>2022-07-16T08:09:05Z</time>
      </trkpt>
      <trkpt lat="44.20056" lon="2.60194">
        <ele>685.08</ele>
        <time>2022-07-16T08:09:12Z</time>
      </trkpt>
      <trkpt lat="44.20064" lon="2.60201">
        <ele>685.08</ele>
        <time>2022-07-16T08:09:19Z</time>
      </trkpt>
      <trkpt lat="44.20074" lon="2.60208">
        <ele>685.56</ele>
        <time>2022-07-16T08:09:27Z</time>
      </trkpt>
      <trkpt lat="44.20084" lon="2.60212">
        <ele>686.04</ele>
        <time>2022-07-16T08:09:35Z</time>
      </trkpt>
      <trkpt lat="44.20094" lon="2.60214">
        <ele>686.04</ele>
        <time>2022-07-16T08:09:43Z</time>
      </trkpt>
      <trkpt lat="44.20105" lon="2.60218">
        <ele>686.52</ele>
        <time>2022-07-16T08:09:51Z</time>
      </trkpt>
      <trkpt lat="44.20116" lon="2.60221">
        <ele>687.48</ele>
        <time>2022-07-16T08:09:59Z</time>
      </trkpt>
      <trkpt lat="44.20127" lon="2.60225">
        <ele>688.44</ele>
        <time>2022-07-16T08:10:07Z</time>
      </trkpt>
      <trkpt lat="44.20138" lon="2.60229">
        <ele>689.88</ele>
        <time>2022-07-16T08:10:15Z</time>
      </trkpt>
      <trkpt lat="44.20163" lon="2.60238">
        <ele>692.29</ele>
        <time>2022-07-16T08:11:02Z</time>
      </trkpt>
      <trkpt lat="44.20176" lon="2.60237">
        <ele>691.33</ele>
        <time>2022-07-16T08:11:12Z</time>
      </trkpt>
      <trkpt lat="44.20191" lon="2.60237">
        <ele>691.81</ele>
        <time>2022-07-16T08:11:20Z</time>
      </trkpt>
      <trkpt lat="44.20203" lon="2.60234">
        <ele>691.33</ele>
        <time>2022-07-16T08:11:28Z</time>
      </trkpt>
      <trkpt lat="44.20213" lon="2.60231">
        <ele>689.88</ele>
        <time>2022-07-16T08:11:36Z</time>
      </trkpt>
      <trkpt lat="44.20227" lon="2.60227">
        <ele>687.48</ele>
        <time>2022-07-16T08:11:49Z</time>
      </trkpt>
      <trkpt lat="44.2027" lon="2.6021">
        <ele>684.6</ele>
        <time>2022-07-16T08:12:22Z</time>
      </trkpt>
      <trkpt lat="44.20283" lon="2.60204">
        <ele>684.12</ele>
        <time>2022-07-16T08:12:31Z</time>
      </trkpt>
      <trkpt lat="44.20295" lon="2.602">
        <ele>685.56</ele>
        <time>2022-07-16T08:12:38Z</time>
      </trkpt>
      <trkpt lat="44.20307" lon="2.60199">
        <ele>687.48</ele>
        <time>2022-07-16T08:12:45Z</time>
      </trkpt>
      <trkpt lat="44.2032" lon="2.602">
        <ele>688.44</ele>
        <time>2022-07-16T08:12:52Z</time>
      </trkpt>
      <trkpt lat="44.20333" lon="2.602">
        <ele>689.88</ele>
        <time>2022-07-16T08:12:58Z</time>
      </trkpt>
      <trkpt lat="44.20343" lon="2.60201">
        <ele>690.84</ele>
        <time>2022-07-16T08:13:04Z</time>
      </trkpt>
      <trkpt lat="44.20353" lon="2.60202">
        <ele>691.33</ele>
        <time>2022-07-16T08:13:11Z</time>
      </trkpt>
      <trkpt lat="44.20363" lon="2.60203">
        <ele>691.81</ele>
        <time>2022-07-16T08:13:17Z</time>
      </trkpt>
      <trkpt lat="44.20374" lon="2.60206">
        <ele>694.69</ele>
        <time>2022-07-16T08:13:24Z</time>
      </trkpt>
      <trkpt lat="44.20384" lon="2.6021">
        <ele>697.09</ele>
        <time>2022-07-16T08:13:31Z</time>
      </trkpt>
      <trkpt lat="44.20393" lon="2.60215">
        <ele>697.09</ele>
        <time>2022-07-16T08:13:38Z</time>
      </trkpt>
      <trkpt lat="44.20406" lon="2.6022">
        <ele>696.61</ele>
        <time>2022-07-16T08:13:48Z</time>
      </trkpt>
      <trkpt lat="44.20416" lon="2.60222">
        <ele>697.09</ele>
        <time>2022-07-16T08:13:55Z</time>
      </trkpt>
      <trkpt lat="44.20428" lon="2.60225">
        <ele>698.53</ele>
        <time>2022-07-16T08:14:03Z</time>
      </trkpt>
      <trkpt lat="44.20438" lon="2.60227">
        <ele>699.02</ele>
        <time>2022-07-16T08:14:10Z</time>
      </trkpt>
      <trkpt lat="44.20449" lon="2.60229">
        <ele>699.02</ele>
        <time>2022-07-16T08:14:17Z</time>
      </trkpt>
      <trkpt lat="44.2046" lon="2.6023">
        <ele>699.5</ele>
        <time>2022-07-16T08:14:24Z</time>
      </trkpt>
      <trkpt lat="44.20471" lon="2.60232">
        <ele>699.98</ele>
        <time>2022-07-16T08:14:31Z</time>
      </trkpt>
      <trkpt lat="44.20482" lon="2.60234">
        <ele>699.98</ele>
        <time>2022-07-16T08:14:38Z</time>
      </trkpt>
      <trkpt lat="44.20492" lon="2.60235">
        <ele>700.46</ele>
        <time>2022-07-16T08:14:45Z</time>
      </trkpt>
      <trkpt lat="44.20503" lon="2.60237">
        <ele>699.98</ele>
        <time>2022-07-16T08:14:52Z</time>
      </trkpt>
      <trkpt lat="44.20514" lon="2.60238">
        <ele>700.46</ele>
        <time>2022-07-16T08:14:59Z</time>
      </trkpt>
      <trkpt lat="44.20524" lon="2.6024">
        <ele>700.94</ele>
        <time>2022-07-16T08:15:06Z</time>
      </trkpt>
      <trkpt lat="44.20535" lon="2.60243">
        <ele>700.94</ele>
        <time>2022-07-16T08:15:13Z</time>
      </trkpt>
      <trkpt lat="44.20544" lon="2.60246">
        <ele>701.42</ele>
        <time>2022-07-16T08:15:20Z</time>
      </trkpt>
      <trkpt lat="44.20555" lon="2.60249">
        <ele>701.9</ele>
        <time>2022-07-16T08:15:28Z</time>
      </trkpt>
      <trkpt lat="44.20565" lon="2.60252">
        <ele>702.38</ele>
        <time>2022-07-16T08:15:35Z</time>
      </trkpt>
      <trkpt lat="44.20576" lon="2.60256">
        <ele>703.34</ele>
        <time>2022-07-16T08:15:42Z</time>
      </trkpt>
      <trkpt lat="44.20588" lon="2.6026">
        <ele>703.82</ele>
        <time>2022-07-16T08:15:49Z</time>
      </trkpt>
      <trkpt lat="44.20599" lon="2.60264">
        <ele>704.3</ele>
        <time>2022-07-16T08:15:57Z</time>
      </trkpt>
      <trkpt lat="44.20609" lon="2.60267">
        <ele>704.78</ele>
        <time>2022-07-16T08:16:05Z</time>
      </trkpt>
      <trkpt lat="44.2062" lon="2.6027">
        <ele>704.78</ele>
        <time>2022-07-16T08:16:12Z</time>
      </trkpt>
      <trkpt lat="44.20631" lon="2.60275">
        <ele>704.3</ele>
        <time>2022-07-16T08:16:20Z</time>
      </trkpt>
      <trkpt lat="44.20641" lon="2.60278">
        <ele>704.3</ele>
        <time>2022-07-16T08:16:28Z</time>
      </trkpt>
      <trkpt lat="44.20651" lon="2.60283">
        <ele>705.26</ele>
        <time>2022-07-16T08:16:35Z</time>
      </trkpt>
      <trkpt lat="44.2066" lon="2.60287">
        <ele>706.71</ele>
        <time>2022-07-16T08:16:42Z</time>
      </trkpt>
      <trkpt lat="44.2068" lon="2.60298">
        <ele>708.63</ele>
        <time>2022-07-16T08:16:59Z</time>
      </trkpt>
      <trkpt lat="44.20693" lon="2.60302">
        <ele>709.11</ele>
        <time>2022-07-16T08:17:07Z</time>
      </trkpt>
      <trkpt lat="44.20704" lon="2.60308">
        <ele>709.59</ele>
        <time>2022-07-16T08:17:16Z</time>
      </trkpt>
      <trkpt lat="44.2072" lon="2.60313">
        <ele>711.03</ele>
        <time>2022-07-16T08:17:26Z</time>
      </trkpt>
      <trkpt lat="44.20732" lon="2.60316">
        <ele>711.99</ele>
        <time>2022-07-16T08:17:35Z</time>
      </trkpt>
      <trkpt lat="44.20743" lon="2.60318">
        <ele>713.44</ele>
        <time>2022-07-16T08:17:43Z</time>
      </trkpt>
      <trkpt lat="44.20754" lon="2.60321">
        <ele>714.88</ele>
        <time>2022-07-16T08:17:50Z</time>
      </trkpt>
      <trkpt lat="44.20766" lon="2.60325">
        <ele>715.84</ele>
        <time>2022-07-16T08:17:58Z</time>
      </trkpt>
      <trkpt lat="44.20776" lon="2.60328">
        <ele>716.8</ele>
        <time>2022-07-16T08:18:06Z</time>
      </trkpt>
      <trkpt lat="44.2079" lon="2.60333">
        <ele>718.24</ele>
        <time>2022-07-16T08:18:17Z</time>
      </trkpt>
      <trkpt lat="44.20803" lon="2.60335">
        <ele>718.72</ele>
        <time>2022-07-16T08:18:25Z</time>
      </trkpt>
      <trkpt lat="44.20814" lon="2.60337">
        <ele>719.68</ele>
        <time>2022-07-16T08:18:32Z</time>
      </trkpt>
      <trkpt lat="44.20824" lon="2.60343">
        <ele>720.16</ele>
        <time>2022-07-16T08:18:41Z</time>
      </trkpt>
      <trkpt lat="44.20837" lon="2.60347">
        <ele>721.13</ele>
        <time>2022-07-16T08:18:49Z</time>
      </trkpt>
      <trkpt lat="44.2085" lon="2.60354">
        <ele>721.61</ele>
        <time>2022-07-16T08:18:58Z</time>
      </trkpt>
      <trkpt lat="44.20861" lon="2.6036">
        <ele>721.61</ele>
        <time>2022-07-16T08:19:05Z</time>
      </trkpt>
      <trkpt lat="44.20871" lon="2.60364">
        <ele>722.57</ele>
        <time>2022-07-16T08:19:12Z</time>
      </trkpt>
      <trkpt lat="44.20881" lon="2.60365">
        <ele>722.57</ele>
        <time>2022-07-16T08:19:22Z</time>
      </trkpt>
      <trkpt lat="44.20896" lon="2.60364">
        <ele>724.01</ele>
        <time>2022-07-16T08:19:34Z</time>
      </trkpt>
      <trkpt lat="44.20947" lon="2.60358">
        <ele>728.82</ele>
        <time>2022-07-16T08:20:07Z</time>
      </trkpt>
      <trkpt lat="44.20964" lon="2.60356">
        <ele>729.78</ele>
        <time>2022-07-16T08:20:19Z</time>
      </trkpt>
      <trkpt lat="44.20985" lon="2.60352">
        <ele>730.26</ele>
        <time>2022-07-16T08:20:34Z</time>
      </trkpt>
      <trkpt lat="44.21002" lon="2.60349">
        <ele>728.34</ele>
        <time>2022-07-16T08:20:46Z</time>
      </trkpt>
      <trkpt lat="44.21027" lon="2.60347">
        <ele>730.74</ele>
        <time>2022-07-16T08:21:05Z</time>
      </trkpt>
      <trkpt lat="44.21039" lon="2.60347">
        <ele>730.26</ele>
        <time>2022-07-16T08:21:13Z</time>
      </trkpt>
      <trkpt lat="44.21053" lon="2.60349">
        <ele>729.3</ele>
        <time>2022-07-16T08:21:21Z</time>
      </trkpt>
      <trkpt lat="44.21068" lon="2.6035">
        <ele>727.37</ele>
        <time>2022-07-16T08:21:33Z</time>
      </trkpt>
      <trkpt lat="44.21114" lon="2.60351">
        <ele>725.45</ele>
        <time>2022-07-16T08:22:04Z</time>
      </trkpt>
      <trkpt lat="44.21126" lon="2.60348">
        <ele>725.45</ele>
        <time>2022-07-16T08:22:14Z</time>
      </trkpt>
      <trkpt lat="44.2116" lon="2.60341">
        <ele>725.45</ele>
        <time>2022-07-16T08:22:48Z</time>
      </trkpt>
      <trkpt lat="44.2117" lon="2.60351">
        <ele>724.97</ele>
        <time>2022-07-16T08:22:57Z</time>
      </trkpt>
      <trkpt lat="44.21179" lon="2.6036">
        <ele>725.45</ele>
        <time>2022-07-16T08:23:06Z</time>
      </trkpt>
      <trkpt lat="44.21194" lon="2.6037">
        <ele>725.93</ele>
        <time>2022-07-16T08:23:18Z</time>
      </trkpt>
      <trkpt lat="44.2121" lon="2.60372">
        <ele>727.86</ele>
        <time>2022-07-16T08:23:30Z</time>
      </trkpt>
      <trkpt lat="44.21226" lon="2.60386">
        <ele>732.18</ele>
        <time>2022-07-16T08:23:43Z</time>
      </trkpt>
      <trkpt lat="44.21241" lon="2.6039">
        <ele>734.58</ele>
        <time>2022-07-16T08:23:55Z</time>
      </trkpt>
      <trkpt lat="44.21251" lon="2.60391">
        <ele>732.66</ele>
        <time>2022-07-16T08:24:05Z</time>
      </trkpt>
      <trkpt lat="44.21265" lon="2.6039">
        <ele>732.66</ele>
        <time>2022-07-16T08:24:16Z</time>
      </trkpt>
      <trkpt lat="44.21275" lon="2.60388">
        <ele>730.74</ele>
        <time>2022-07-16T08:24:25Z</time>
      </trkpt>
      <trkpt lat="44.21287" lon="2.60399">
        <ele>731.7</ele>
        <time>2022-07-16T08:24:34Z</time>
      </trkpt>
      <trkpt lat="44.21301" lon="2.60415">
        <ele>737.95</ele>
        <time>2022-07-16T08:24:43Z</time>
      </trkpt>
      <trkpt lat="44.21313" lon="2.60423">
        <ele>739.87</ele>
        <time>2022-07-16T08:24:53Z</time>
      </trkpt>
      <trkpt lat="44.21325" lon="2.60432">
        <ele>745.64</ele>
        <time>2022-07-16T08:25:04Z</time>
      </trkpt>
      <trkpt lat="44.21337" lon="2.60423">
        <ele>749</ele>
        <time>2022-07-16T08:25:18Z</time>
      </trkpt>
      <trkpt lat="44.21346" lon="2.6041">
        <ele>749</ele>
        <time>2022-07-16T08:25:27Z</time>
      </trkpt>
      <trkpt lat="44.21355" lon="2.60395">
        <ele>752.37</ele>
        <time>2022-07-16T08:25:35Z</time>
      </trkpt>
      <trkpt lat="44.21367" lon="2.60387">
        <ele>755.25</ele>
        <time>2022-07-16T08:25:43Z</time>
      </trkpt>
      <trkpt lat="44.21375" lon="2.60395">
        <ele>756.69</ele>
        <time>2022-07-16T08:25:50Z</time>
      </trkpt>
      <trkpt lat="44.21379" lon="2.60409">
        <ele>756.69</ele>
        <time>2022-07-16T08:25:57Z</time>
      </trkpt>
      <trkpt lat="44.21381" lon="2.60423">
        <ele>756.21</ele>
        <time>2022-07-16T08:26:04Z</time>
      </trkpt>
      <trkpt lat="44.21383" lon="2.60438">
        <ele>755.73</ele>
        <time>2022-07-16T08:26:11Z</time>
      </trkpt>
      <trkpt lat="44.21385" lon="2.60451">
        <ele>755.73</ele>
        <time>2022-07-16T08:26:18Z</time>
      </trkpt>
      <trkpt lat="44.21387" lon="2.60464">
        <ele>755.25</ele>
        <time>2022-07-16T08:26:25Z</time>
      </trkpt>
      <trkpt lat="44.21389" lon="2.60477">
        <ele>755.73</ele>
        <time>2022-07-16T08:26:33Z</time>
      </trkpt>
      <trkpt lat="44.21391" lon="2.6049">
        <ele>755.73</ele>
        <time>2022-07-16T08:26:41Z</time>
      </trkpt>
      <trkpt lat="44.21394" lon="2.60509">
        <ele>755.73</ele>
        <time>2022-07-16T08:26:51Z</time>
      </trkpt>
      <trkpt lat="44.21397" lon="2.60524">
        <ele>755.73</ele>
        <time>2022-07-16T08:26:59Z</time>
      </trkpt>
      <trkpt lat="44.21399" lon="2.60538">
        <ele>756.21</ele>
        <time>2022-07-16T08:27:06Z</time>
      </trkpt>
      <trkpt lat="44.21401" lon="2.60554">
        <ele>757.66</ele>
        <time>2022-07-16T08:27:14Z</time>
      </trkpt>
      <trkpt lat="44.21404" lon="2.6057">
        <ele>758.62</ele>
        <time>2022-07-16T08:27:21Z</time>
      </trkpt>
      <trkpt lat="44.21406" lon="2.60586">
        <ele>760.54</ele>
        <time>2022-07-16T08:27:29Z</time>
      </trkpt>
      <trkpt lat="44.21408" lon="2.60599">
        <ele>761.5</ele>
        <time>2022-07-16T08:27:36Z</time>
      </trkpt>
      <trkpt lat="44.21411" lon="2.60614">
        <ele>762.94</ele>
        <time>2022-07-16T08:27:45Z</time>
      </trkpt>
      <trkpt lat="44.21413" lon="2.6063">
        <ele>765.83</ele>
        <time>2022-07-16T08:27:54Z</time>
      </trkpt>
      <trkpt lat="44.21416" lon="2.60648">
        <ele>766.31</ele>
        <time>2022-07-16T08:28:02Z</time>
      </trkpt>
      <trkpt lat="44.21418" lon="2.60665">
        <ele>766.31</ele>
        <time>2022-07-16T08:28:11Z</time>
      </trkpt>
      <trkpt lat="44.21421" lon="2.60682">
        <ele>767.75</ele>
        <time>2022-07-16T08:28:21Z</time>
      </trkpt>
      <trkpt lat="44.21423" lon="2.60698">
        <ele>770.15</ele>
        <time>2022-07-16T08:28:29Z</time>
      </trkpt>
      <trkpt lat="44.21425" lon="2.60713">
        <ele>772.08</ele>
        <time>2022-07-16T08:28:37Z</time>
      </trkpt>
      <trkpt lat="44.21427" lon="2.60731">
        <ele>773.04</ele>
        <time>2022-07-16T08:28:44Z</time>
      </trkpt>
      <trkpt lat="44.2143" lon="2.6075">
        <ele>773.04</ele>
        <time>2022-07-16T08:28:54Z</time>
      </trkpt>
      <trkpt lat="44.21432" lon="2.60768">
        <ele>772.08</ele>
        <time>2022-07-16T08:29:03Z</time>
      </trkpt>
      <trkpt lat="44.21435" lon="2.60783">
        <ele>772.08</ele>
        <time>2022-07-16T08:29:11Z</time>
      </trkpt>
      <trkpt lat="44.21437" lon="2.60797">
        <ele>771.6</ele>
        <time>2022-07-16T08:29:18Z</time>
      </trkpt>
      <trkpt lat="44.21439" lon="2.60812">
        <ele>768.71</ele>
        <time>2022-07-16T08:29:26Z</time>
      </trkpt>
      <trkpt lat="44.21443" lon="2.60826">
        <ele>768.71</ele>
        <time>2022-07-16T08:29:34Z</time>
      </trkpt>
      <trkpt lat="44.21446" lon="2.60843">
        <ele>769.19</ele>
        <time>2022-07-16T08:29:44Z</time>
      </trkpt>
      <trkpt lat="44.21451" lon="2.60863">
        <ele>770.15</ele>
        <time>2022-07-16T08:29:54Z</time>
      </trkpt>
      <trkpt lat="44.21454" lon="2.6088">
        <ele>771.11</ele>
        <time>2022-07-16T08:30:03Z</time>
      </trkpt>
      <trkpt lat="44.2146" lon="2.60896">
        <ele>771.11</ele>
        <time>2022-07-16T08:30:13Z</time>
      </trkpt>
      <trkpt lat="44.21467" lon="2.60909">
        <ele>769.19</ele>
        <time>2022-07-16T08:30:22Z</time>
      </trkpt>
      <trkpt lat="44.21483" lon="2.60938">
        <ele>763.9</ele>
        <time>2022-07-16T08:30:41Z</time>
      </trkpt>
      <trkpt lat="44.21495" lon="2.60951">
        <ele>761.5</ele>
        <time>2022-07-16T08:30:52Z</time>
      </trkpt>
      <trkpt lat="44.21505" lon="2.60965">
        <ele>761.02</ele>
        <time>2022-07-16T08:31:03Z</time>
      </trkpt>
      <trkpt lat="44.21516" lon="2.60977">
        <ele>761.98</ele>
        <time>2022-07-16T08:31:12Z</time>
      </trkpt>
      <trkpt lat="44.21539" lon="2.60997">
        <ele>764.39</ele>
        <time>2022-07-16T08:31:32Z</time>
      </trkpt>
      <trkpt lat="44.21552" lon="2.6101">
        <ele>764.39</ele>
        <time>2022-07-16T08:31:44Z</time>
      </trkpt>
      <trkpt lat="44.21567" lon="2.61026">
        <ele>762.46</ele>
        <time>2022-07-16T08:31:57Z</time>
      </trkpt>
      <trkpt lat="44.21578" lon="2.61037">
        <ele>761.98</ele>
        <time>2022-07-16T08:32:09Z</time>
      </trkpt>
      <trkpt lat="44.21589" lon="2.6105">
        <ele>761.98</ele>
        <time>2022-07-16T08:32:20Z</time>
      </trkpt>
      <trkpt lat="44.21608" lon="2.61069">
        <ele>760.06</ele>
        <time>2022-07-16T08:32:39Z</time>
      </trkpt>
      <trkpt lat="44.2162" lon="2.6109">
        <ele>757.18</ele>
        <time>2022-07-16T08:32:51Z</time>
      </trkpt>
      <trkpt lat="44.21633" lon="2.61108">
        <ele>754.77</ele>
        <time>2022-07-16T08:33:03Z</time>
      </trkpt>
      <trkpt lat="44.21665" lon="2.61147">
        <ele>753.81</ele>
        <time>2022-07-16T08:33:34Z</time>
      </trkpt>
      <trkpt lat="44.21686" lon="2.61171">
        <ele>753.33</ele>
        <time>2022-07-16T08:33:48Z</time>
      </trkpt>
      <trkpt lat="44.21694" lon="2.61186">
        <ele>754.29</ele>
        <time>2022-07-16T08:33:57Z</time>
      </trkpt>
      <trkpt lat="44.21701" lon="2.61198">
        <ele>754.77</ele>
        <time>2022-07-16T08:34:06Z</time>
      </trkpt>
      <trkpt lat="44.2171" lon="2.61214">
        <ele>755.25</ele>
        <time>2022-07-16T08:34:14Z</time>
      </trkpt>
      <trkpt lat="44.21715" lon="2.61227">
        <ele>756.69</ele>
        <time>2022-07-16T08:34:22Z</time>
      </trkpt>
      <trkpt lat="44.21721" lon="2.61242">
        <ele>758.62</ele>
        <time>2022-07-16T08:34:32Z</time>
      </trkpt>
      <trkpt lat="44.21727" lon="2.61262">
        <ele>759.1</ele>
        <time>2022-07-16T08:34:43Z</time>
      </trkpt>
      <trkpt lat="44.21731" lon="2.61282">
        <ele>758.62</ele>
        <time>2022-07-16T08:34:53Z</time>
      </trkpt>
      <trkpt lat="44.21737" lon="2.61298">
        <ele>760.54</ele>
        <time>2022-07-16T08:35:02Z</time>
      </trkpt>
      <trkpt lat="44.21743" lon="2.61311">
        <ele>761.5</ele>
        <time>2022-07-16T08:35:10Z</time>
      </trkpt>
      <trkpt lat="44.21767" lon="2.61323">
        <ele>759.58</ele>
        <time>2022-07-16T08:35:41Z</time>
      </trkpt>
      <trkpt lat="44.21778" lon="2.61317">
        <ele>758.62</ele>
        <time>2022-07-16T08:35:49Z</time>
      </trkpt>
      <trkpt lat="44.21789" lon="2.61308">
        <ele>756.69</ele>
        <time>2022-07-16T08:36:01Z</time>
      </trkpt>
      <trkpt lat="44.21799" lon="2.61299">
        <ele>754.29</ele>
        <time>2022-07-16T08:36:12Z</time>
      </trkpt>
      <trkpt lat="44.21808" lon="2.61288">
        <ele>753.81</ele>
        <time>2022-07-16T08:36:22Z</time>
      </trkpt>
      <trkpt lat="44.21818" lon="2.61271">
        <ele>753.33</ele>
        <time>2022-07-16T08:36:36Z</time>
      </trkpt>
      <trkpt lat="44.21824" lon="2.61247">
        <ele>749.97</ele>
        <time>2022-07-16T08:36:50Z</time>
      </trkpt>
      <trkpt lat="44.21829" lon="2.61228">
        <ele>749</ele>
        <time>2022-07-16T08:36:59Z</time>
      </trkpt>
      <trkpt lat="44.21836" lon="2.6121">
        <ele>749.49</ele>
        <time>2022-07-16T08:37:10Z</time>
      </trkpt>
      <trkpt lat="44.21825" lon="2.61109">
        <ele>742.76</ele>
        <time>2022-07-16T08:45:45Z</time>
        <extensions>
          <visugpx:TrkExtension xmlns:visugpx="https://www.visugpx.com/editgpx/">
            <visugpx:node>1</visugpx:node>
            </visugpx:TrkExtension>
        </extensions>
      </trkpt>
      <trkpt lat="44.21813" lon="2.61095">
        <ele>744.3</ele>
      </trkpt>
      <trkpt lat="44.2182" lon="2.60993">
        <ele>740.9</ele>
      </trkpt>
      <trkpt lat="44.21822" lon="2.60892">
        <ele>739.1</ele>
      </trkpt>
      <trkpt lat="44.21828" lon="2.60872">
        <ele>738</ele>
      </trkpt>
      <trkpt lat="44.21837" lon="2.60864">
        <ele>735.7</ele>
      </trkpt>
      <trkpt lat="44.2186" lon="2.60849">
        <ele>731.9</ele>
      </trkpt>
      <trkpt lat="44.21876" lon="2.60826">
        <ele>730.7</ele>
      </trkpt>
      <trkpt lat="44.21886" lon="2.60785">
        <ele>730.9</ele>
      </trkpt>
      <trkpt lat="44.21891" lon="2.60716">
        <ele>730.5</ele>
      </trkpt>
      <trkpt lat="44.21902" lon="2.60668">
        <ele>728.3</ele>
      </trkpt>
      <trkpt lat="44.21899" lon="2.60612">
        <ele>729.3</ele>
      </trkpt>
      <trkpt lat="44.21892" lon="2.60589">
        <ele>727.3</ele>
      </trkpt>
      <trkpt lat="44.21879" lon="2.60568">
        <ele>727.2</ele>
      </trkpt>
      <trkpt lat="44.21868" lon="2.60541">
        <ele>727</ele>
      </trkpt>
      <trkpt lat="44.21866" lon="2.60463">
        <ele>722.5</ele>
      </trkpt>
      <trkpt lat="44.21907" lon="2.60491">
        <ele>719.9</ele>
      </trkpt>
      <trkpt lat="44.2192" lon="2.60502">
        <ele>722.6</ele>
      </trkpt>
      <trkpt lat="44.21952" lon="2.60544">
        <ele>726.6</ele>
      </trkpt>
      <trkpt lat="44.21961" lon="2.60549">
        <ele>728.1</ele>
      </trkpt>
      <trkpt lat="44.2197" lon="2.60549">
        <ele>730.4</ele>
      </trkpt>
      <trkpt lat="44.21977" lon="2.60543">
        <ele>732.2</ele>
      </trkpt>
      <trkpt lat="44.22004" lon="2.60493">
        <ele>737.4</ele>
      </trkpt>
      <trkpt lat="44.22024" lon="2.60464">
        <ele>738.8</ele>
      </trkpt>
      <trkpt lat="44.22034" lon="2.60452">
        <ele>739.4</ele>
      </trkpt>
      <trkpt lat="44.22047" lon="2.60448">
        <ele>740.4</ele>
      </trkpt>
      <trkpt lat="44.22068" lon="2.6045">
        <ele>741.5</ele>
      </trkpt>
      <trkpt lat="44.22115" lon="2.60461">
        <ele>744.9</ele>
      </trkpt>
      <trkpt lat="44.22161" lon="2.60473">
        <ele>748.6</ele>
      </trkpt>
      <trkpt lat="44.22196" lon="2.60486">
        <ele>750.5</ele>
      </trkpt>
      <trkpt lat="44.22261" lon="2.60514">
        <ele>753.6</ele>
      </trkpt>
      <trkpt lat="44.2228" lon="2.60525">
        <ele>755.7</ele>
      </trkpt>
      <trkpt lat="44.2235" lon="2.60582">
        <ele>760.9</ele>
      </trkpt>
      <trkpt lat="44.22383" lon="2.60615">
        <ele>761.6</ele>
      </trkpt>
      <trkpt lat="44.22391" lon="2.60622">
        <ele>761.2</ele>
      </trkpt>
      <trkpt lat="44.22404" lon="2.60644">
        <ele>760.1</ele>
      </trkpt>
      <trkpt lat="44.22406" lon="2.60646">
        <ele>759.9</ele>
        <extensions>
          <visugpx:TrkExtension xmlns:visugpx="https://www.visugpx.com/editgpx/">
            <visugpx:node>2</visugpx:node>
            </visugpx:TrkExtension>
        </extensions>
      </trkpt>
      <trkpt lat="44.22427" lon="2.60693">
        <ele>759.8</ele>
      </trkpt>
      <trkpt lat="44.22441" lon="2.60712">
        <ele>758.4</ele>
      </trkpt>
      <trkpt lat="44.22452" lon="2.60721">
        <ele>757.4</ele>
      </trkpt>
      <trkpt lat="44.22467" lon="2.60725">
        <ele>756.5</ele>
      </trkpt>
      <trkpt lat="44.22497" lon="2.60757">
        <ele>755.1</ele>
      </trkpt>
      <trkpt lat="44.22531" lon="2.6079">
        <ele>753.8</ele>
      </trkpt>
      <trkpt lat="44.2254" lon="2.60805">
        <ele>752.8</ele>
      </trkpt>
      <trkpt lat="44.22549" lon="2.60814">
        <ele>752.2</ele>
      </trkpt>
      <trkpt lat="44.22573" lon="2.60817">
        <ele>751.4</ele>
      </trkpt>
      <trkpt lat="44.22709" lon="2.60761">
        <ele>745.7</ele>
      </trkpt>
      <trkpt lat="44.22727" lon="2.60735">
        <ele>742.8</ele>
      </trkpt>
      <trkpt lat="44.22732" lon="2.607">
        <ele>739.9</ele>
      </trkpt>
      <trkpt lat="44.22745" lon="2.60644">
        <ele>735.7</ele>
      </trkpt>
      <trkpt lat="44.22755" lon="2.60503">
        <ele>726.6</ele>
      </trkpt>
      <trkpt lat="44.22743" lon="2.60451">
        <ele>722.2</ele>
      </trkpt>
      <trkpt lat="44.22728" lon="2.60409">
        <ele>718.8</ele>
      </trkpt>
      <trkpt lat="44.2273" lon="2.60393">
        <ele>717.6</ele>
      </trkpt>
      <trkpt lat="44.22738" lon="2.60383">
        <ele>716.7</ele>
      </trkpt>
      <trkpt lat="44.2275" lon="2.60376">
        <ele>716.1</ele>
      </trkpt>
      <trkpt lat="44.22844" lon="2.60351">
        <ele>708.9</ele>
      </trkpt>
      <trkpt lat="44.22857" lon="2.6034">
        <ele>708.8</ele>
      </trkpt>
      <trkpt lat="44.22864" lon="2.60318">
        <ele>709.1</ele>
      </trkpt>
      <trkpt lat="44.22865" lon="2.60286">
        <ele>709.9</ele>
      </trkpt>
      <trkpt lat="44.22881" lon="2.60274">
        <ele>711.6</ele>
      </trkpt>
      <trkpt lat="44.22928" lon="2.6022">
        <ele>717.6</ele>
      </trkpt>
      <trkpt lat="44.23027" lon="2.6012">
        <ele>725.6</ele>
      </trkpt>
      <trkpt lat="44.2308" lon="2.60044">
        <ele>730.2</ele>
      </trkpt>
      <trkpt lat="44.23133" lon="2.59914">
        <ele>738</ele>
      </trkpt>
      <trkpt lat="44.23156" lon="2.59846">
        <ele>741.9</ele>
      </trkpt>
      <trkpt lat="44.23181" lon="2.59799">
        <ele>745.4</ele>
      </trkpt>
      <trkpt lat="44.23268" lon="2.59765">
        <ele>750.5</ele>
      </trkpt>
      <trkpt lat="44.23332" lon="2.59715">
        <ele>753.2</ele>
      </trkpt>
      <trkpt lat="44.23418" lon="2.59613">
        <ele>755</ele>
      </trkpt>
      <trkpt lat="44.23473" lon="2.59666">
        <ele>757</ele>
      </trkpt>
      <trkpt lat="44.23634" lon="2.59832">
        <ele>765.6</ele>
      </trkpt>
      <trkpt lat="44.23681" lon="2.59891">
        <ele>770</ele>
      </trkpt>
      <trkpt lat="44.23703" lon="2.59915">
        <ele>771.3</ele>
      </trkpt>
      <trkpt lat="44.23727" lon="2.59934">
        <ele>773.4</ele>
      </trkpt>
      <trkpt lat="44.23737" lon="2.59936">
        <ele>773.7</ele>
      </trkpt>
      <trkpt lat="44.23765" lon="2.59938">
        <ele>774.4</ele>
        <extensions>
          <visugpx:TrkExtension xmlns:visugpx="https://www.visugpx.com/editgpx/">
            <visugpx:node>3</visugpx:node>
            </visugpx:TrkExtension>
        </extensions>
      </trkpt>
    </trkseg>
  </trk>
</gpx>